<?xml version="1.0" encoding="UTF-8" standalone="no" ?>
<gpx xmlns="http://www.topografix.com/GPX/1/1" xmlns:xsi="http://www.w3.org/2001/XMLSchema-instance" xsi:schemaLocation="http://www.topografix.com/GPX/1/1 http://www.topografix.com/GPX/1/1/gpx.xsd" version="1.1" creator="VisuGPX - https://www.visugpx.com">
  <metadata>
    <name>ASLPM marche à Luché le 15 février 2016</name>
    <desc><![CDATA[Aslpm marche de Luché le 15 février 2016]]></desc>
  </metadata>
  <trk>
    <name><![CDATA[Saint-Jean-de-Liversay Course à pied]]></name>
    <trkseg>
      <trkpt lat="46.25189" lon="-0.88652">
        <ele>6.8000001907349</ele>
        <time>2016-02-15T08:04:58.000Z</time>
      </trkpt>
      <trkpt lat="46.25191" lon="-0.88653">
        <ele>6.8000001907349</ele>
        <time>2016-02-15T08:04:59.000Z</time>
      </trkpt>
      <trkpt lat="46.25193" lon="-0.88652">
        <ele>6.8000001907349</ele>
        <time>2016-02-15T08:05:00.000Z</time>
      </trkpt>
      <trkpt lat="46.25189" lon="-0.88648">
        <ele>7</ele>
        <time>2016-02-15T08:05:01.000Z</time>
      </trkpt>
      <trkpt lat="46.2518" lon="-0.88641">
        <ele>7</ele>
        <time>2016-02-15T08:05:10.000Z</time>
      </trkpt>
      <trkpt lat="46.25172" lon="-0.88643">
        <ele>7</ele>
        <time>2016-02-15T08:05:17.000Z</time>
      </trkpt>
      <trkpt lat="46.25164" lon="-0.88644">
        <ele>7</ele>
        <time>2016-02-15T08:05:20.000Z</time>
      </trkpt>
      <trkpt lat="46.25153" lon="-0.8865">
        <ele>6.8000001907349</ele>
        <time>2016-02-15T08:06:20.000Z</time>
      </trkpt>
      <trkpt lat="46.25137" lon="-0.88665">
        <ele>6.5999999046326</ele>
        <time>2016-02-15T08:06:34.000Z</time>
      </trkpt>
      <trkpt lat="46.25136" lon="-0.88683">
        <ele>6.4000000953674</ele>
        <time>2016-02-15T08:06:44.000Z</time>
      </trkpt>
      <trkpt lat="46.25129" lon="-0.88688">
        <ele>6.4000000953674</ele>
        <time>2016-02-15T08:06:52.000Z</time>
      </trkpt>
      <trkpt lat="46.25128" lon="-0.88689">
        <ele>6.4000000953674</ele>
        <time>2016-02-15T08:06:53.000Z</time>
      </trkpt>
      <trkpt lat="46.2511" lon="-0.88696">
        <ele>6.4000000953674</ele>
        <time>2016-02-15T08:07:11.000Z</time>
      </trkpt>
      <trkpt lat="46.25092" lon="-0.88703">
        <ele>6.1999998092651</ele>
        <time>2016-02-15T08:07:25.000Z</time>
      </trkpt>
      <trkpt lat="46.25082" lon="-0.88707">
        <ele>6.1999998092651</ele>
        <time>2016-02-15T08:07:33.000Z</time>
      </trkpt>
      <trkpt lat="46.25066" lon="-0.88715">
        <ele>6</ele>
        <time>2016-02-15T08:07:58.000Z</time>
      </trkpt>
      <trkpt lat="46.25049" lon="-0.88724">
        <ele>5.8000001907349</ele>
        <time>2016-02-15T08:08:11.000Z</time>
      </trkpt>
      <trkpt lat="46.25031" lon="-0.88733">
        <ele>5.8000001907349</ele>
        <time>2016-02-15T08:08:25.000Z</time>
      </trkpt>
      <trkpt lat="46.25015" lon="-0.88747">
        <ele>5.8000001907349</ele>
        <time>2016-02-15T08:08:39.000Z</time>
      </trkpt>
      <trkpt lat="46.25" lon="-0.88765">
        <ele>5.8000001907349</ele>
        <time>2016-02-15T08:08:53.000Z</time>
      </trkpt>
      <trkpt lat="46.24986" lon="-0.88781">
        <ele>5.8000001907349</ele>
        <time>2016-02-15T08:09:05.000Z</time>
      </trkpt>
      <trkpt lat="46.24976" lon="-0.88803">
        <ele>6</ele>
        <time>2016-02-15T08:09:17.000Z</time>
      </trkpt>
      <trkpt lat="46.24977" lon="-0.8883">
        <ele>5.8000001907349</ele>
        <time>2016-02-15T08:09:31.000Z</time>
      </trkpt>
      <trkpt lat="46.24982" lon="-0.88856">
        <ele>5.4000000953674</ele>
        <time>2016-02-15T08:09:44.000Z</time>
      </trkpt>
      <trkpt lat="46.24984" lon="-0.88864">
        <ele>5.4000000953674</ele>
        <time>2016-02-15T08:09:48.000Z</time>
      </trkpt>
      <trkpt lat="46.24991" lon="-0.88887">
        <ele>5.1999998092651</ele>
        <time>2016-02-15T08:10:02.000Z</time>
      </trkpt>
      <trkpt lat="46.24995" lon="-0.88913">
        <ele>5</ele>
        <time>2016-02-15T08:10:17.000Z</time>
      </trkpt>
      <trkpt lat="46.25001" lon="-0.88939">
        <ele>4.5999999046326</ele>
        <time>2016-02-15T08:10:32.000Z</time>
      </trkpt>
      <trkpt lat="46.25011" lon="-0.88962">
        <ele>4.8000001907349</ele>
        <time>2016-02-15T08:10:46.000Z</time>
      </trkpt>
      <trkpt lat="46.2502" lon="-0.88985">
        <ele>5.1999998092651</ele>
        <time>2016-02-15T08:11:01.000Z</time>
      </trkpt>
      <trkpt lat="46.25022" lon="-0.88992">
        <ele>5.4000000953674</ele>
        <time>2016-02-15T08:11:05.000Z</time>
      </trkpt>
      <trkpt lat="46.25026" lon="-0.88999">
        <ele>5.8000001907349</ele>
        <time>2016-02-15T08:11:09.000Z</time>
      </trkpt>
      <trkpt lat="46.25037" lon="-0.89021">
        <ele>6</ele>
        <time>2016-02-15T08:11:23.000Z</time>
      </trkpt>
      <trkpt lat="46.25046" lon="-0.89044">
        <ele>6</ele>
        <time>2016-02-15T08:11:37.000Z</time>
      </trkpt>
      <trkpt lat="46.25046" lon="-0.89046">
        <ele>6</ele>
        <time>2016-02-15T08:11:38.000Z</time>
      </trkpt>
      <trkpt lat="46.2505" lon="-0.89072">
        <ele>6</ele>
        <time>2016-02-15T08:11:52.000Z</time>
      </trkpt>
      <trkpt lat="46.25051" lon="-0.89079">
        <ele>5.8000001907349</ele>
        <time>2016-02-15T08:11:55.000Z</time>
      </trkpt>
      <trkpt lat="46.25053" lon="-0.891">
        <ele>5.4000000953674</ele>
        <time>2016-02-15T08:12:06.000Z</time>
      </trkpt>
      <trkpt lat="46.25057" lon="-0.89126">
        <ele>4.5999999046326</ele>
        <time>2016-02-15T08:12:20.000Z</time>
      </trkpt>
      <trkpt lat="46.25059" lon="-0.89152">
        <ele>4.1999998092651</ele>
        <time>2016-02-15T08:12:33.000Z</time>
      </trkpt>
      <trkpt lat="46.25062" lon="-0.89178">
        <ele>4.4000000953674</ele>
        <time>2016-02-15T08:12:47.000Z</time>
      </trkpt>
      <trkpt lat="46.25067" lon="-0.89203">
        <ele>4.8000001907349</ele>
        <time>2016-02-15T08:13:03.000Z</time>
      </trkpt>
      <trkpt lat="46.25066" lon="-0.89207">
        <ele>4.8000001907349</ele>
        <time>2016-02-15T08:13:05.000Z</time>
      </trkpt>
      <trkpt lat="46.25057" lon="-0.89231">
        <ele>5.1999998092651</ele>
        <time>2016-02-15T08:13:20.000Z</time>
      </trkpt>
      <trkpt lat="46.25048" lon="-0.89254">
        <ele>5.4000000953674</ele>
        <time>2016-02-15T08:13:35.000Z</time>
      </trkpt>
      <trkpt lat="46.2504" lon="-0.89277">
        <ele>5.5999999046326</ele>
        <time>2016-02-15T08:13:49.000Z</time>
      </trkpt>
      <trkpt lat="46.25033" lon="-0.89301">
        <ele>5.8000001907349</ele>
        <time>2016-02-15T08:14:03.000Z</time>
      </trkpt>
      <trkpt lat="46.25031" lon="-0.89308">
        <ele>5.8000001907349</ele>
        <time>2016-02-15T08:14:07.000Z</time>
      </trkpt>
      <trkpt lat="46.25029" lon="-0.89315">
        <ele>5.8000001907349</ele>
        <time>2016-02-15T08:14:11.000Z</time>
      </trkpt>
      <trkpt lat="46.25021" lon="-0.89338">
        <ele>6</ele>
        <time>2016-02-15T08:14:25.000Z</time>
      </trkpt>
      <trkpt lat="46.25014" lon="-0.89362">
        <ele>6.1999998092651</ele>
        <time>2016-02-15T08:14:39.000Z</time>
      </trkpt>
      <trkpt lat="46.25005" lon="-0.89386">
        <ele>6.4000000953674</ele>
        <time>2016-02-15T08:14:53.000Z</time>
      </trkpt>
      <trkpt lat="46.24998" lon="-0.8941">
        <ele>6.4000000953674</ele>
        <time>2016-02-15T08:15:07.000Z</time>
      </trkpt>
      <trkpt lat="46.24991" lon="-0.89435">
        <ele>6.1999998092651</ele>
        <time>2016-02-15T08:15:22.000Z</time>
      </trkpt>
      <trkpt lat="46.24989" lon="-0.89461">
        <ele>6</ele>
        <time>2016-02-15T08:15:36.000Z</time>
      </trkpt>
      <trkpt lat="46.24986" lon="-0.89487">
        <ele>5.5999999046326</ele>
        <time>2016-02-15T08:15:50.000Z</time>
      </trkpt>
      <trkpt lat="46.24987" lon="-0.89506">
        <ele>5.4000000953674</ele>
        <time>2016-02-15T08:16:00.000Z</time>
      </trkpt>
      <trkpt lat="46.2499" lon="-0.8952">
        <ele>5.1999998092651</ele>
        <time>2016-02-15T08:16:08.000Z</time>
      </trkpt>
      <trkpt lat="46.24992" lon="-0.89545">
        <ele>4.8000001907349</ele>
        <time>2016-02-15T08:16:21.000Z</time>
      </trkpt>
      <trkpt lat="46.24995" lon="-0.89572">
        <ele>5.1999998092651</ele>
        <time>2016-02-15T08:16:35.000Z</time>
      </trkpt>
      <trkpt lat="46.24998" lon="-0.896">
        <ele>5.8000001907349</ele>
        <time>2016-02-15T08:16:49.000Z</time>
      </trkpt>
      <trkpt lat="46.24999" lon="-0.89627">
        <ele>6.4000000953674</ele>
        <time>2016-02-15T08:17:03.000Z</time>
      </trkpt>
      <trkpt lat="46.25" lon="-0.89654">
        <ele>7</ele>
        <time>2016-02-15T08:17:17.000Z</time>
      </trkpt>
      <trkpt lat="46.24999" lon="-0.89681">
        <ele>7.8000001907349</ele>
        <time>2016-02-15T08:17:31.000Z</time>
      </trkpt>
      <trkpt lat="46.25" lon="-0.897">
        <ele>8.1999998092651</ele>
        <time>2016-02-15T08:17:41.000Z</time>
      </trkpt>
      <trkpt lat="46.25" lon="-0.89727">
        <ele>8.1999998092651</ele>
        <time>2016-02-15T08:17:56.000Z</time>
      </trkpt>
      <trkpt lat="46.25001" lon="-0.89753">
        <ele>7.8000001907349</ele>
        <time>2016-02-15T08:18:09.000Z</time>
      </trkpt>
      <trkpt lat="46.25001" lon="-0.8978">
        <ele>7.5999999046326</ele>
        <time>2016-02-15T08:18:23.000Z</time>
      </trkpt>
      <trkpt lat="46.25" lon="-0.89807">
        <ele>7.4000000953674</ele>
        <time>2016-02-15T08:18:36.000Z</time>
      </trkpt>
      <trkpt lat="46.25001" lon="-0.89823">
        <ele>7.4000000953674</ele>
        <time>2016-02-15T08:18:45.000Z</time>
      </trkpt>
      <trkpt lat="46.25001" lon="-0.8983">
        <ele>7.4000000953674</ele>
        <time>2016-02-15T08:18:49.000Z</time>
      </trkpt>
      <trkpt lat="46.25001" lon="-0.89858">
        <ele>7.4000000953674</ele>
        <time>2016-02-15T08:19:03.000Z</time>
      </trkpt>
      <trkpt lat="46.25001" lon="-0.89865">
        <ele>7.4000000953674</ele>
        <time>2016-02-15T08:19:08.000Z</time>
      </trkpt>
      <trkpt lat="46.25001" lon="-0.89891">
        <ele>7.1999998092651</ele>
        <time>2016-02-15T08:19:34.000Z</time>
      </trkpt>
      <trkpt lat="46.25" lon="-0.89918">
        <ele>8</ele>
        <time>2016-02-15T08:19:48.000Z</time>
      </trkpt>
      <trkpt lat="46.25001" lon="-0.89945">
        <ele>8.6000003814697</ele>
        <time>2016-02-15T08:20:02.000Z</time>
      </trkpt>
      <trkpt lat="46.25002" lon="-0.89971">
        <ele>8.6000003814697</ele>
        <time>2016-02-15T08:20:17.000Z</time>
      </trkpt>
      <trkpt lat="46.25003" lon="-0.89986">
        <ele>8.3999996185303</ele>
        <time>2016-02-15T08:20:26.000Z</time>
      </trkpt>
      <trkpt lat="46.25004" lon="-0.9001">
        <ele>8</ele>
        <time>2016-02-15T08:20:46.000Z</time>
      </trkpt>
      <trkpt lat="46.25002" lon="-0.90038">
        <ele>8</ele>
        <time>2016-02-15T08:20:59.000Z</time>
      </trkpt>
      <trkpt lat="46.25004" lon="-0.90064">
        <ele>8.1999998092651</ele>
        <time>2016-02-15T08:21:12.000Z</time>
      </trkpt>
      <trkpt lat="46.25003" lon="-0.90091">
        <ele>8.6000003814697</ele>
        <time>2016-02-15T08:21:26.000Z</time>
      </trkpt>
      <trkpt lat="46.25004" lon="-0.90117">
        <ele>8.8000001907349</ele>
        <time>2016-02-15T08:21:39.000Z</time>
      </trkpt>
      <trkpt lat="46.25005" lon="-0.90144">
        <ele>9.1999998092651</ele>
        <time>2016-02-15T08:21:52.000Z</time>
      </trkpt>
      <trkpt lat="46.25003" lon="-0.90164">
        <ele>9.3999996185303</ele>
        <time>2016-02-15T08:22:03.000Z</time>
      </trkpt>
      <trkpt lat="46.25002" lon="-0.90172">
        <ele>9.6000003814697</ele>
        <time>2016-02-15T08:22:07.000Z</time>
      </trkpt>
      <trkpt lat="46.25001" lon="-0.90195">
        <ele>9.8000001907349</ele>
        <time>2016-02-15T08:22:19.000Z</time>
      </trkpt>
      <trkpt lat="46.25" lon="-0.90205">
        <ele>10</ele>
        <time>2016-02-15T08:22:24.000Z</time>
      </trkpt>
      <trkpt lat="46.24998" lon="-0.90232">
        <ele>10</ele>
        <time>2016-02-15T08:22:38.000Z</time>
      </trkpt>
      <trkpt lat="46.24996" lon="-0.90258">
        <ele>10.199999809265</ele>
        <time>2016-02-15T08:22:51.000Z</time>
      </trkpt>
      <trkpt lat="46.24998" lon="-0.90285">
        <ele>10.199999809265</ele>
        <time>2016-02-15T08:23:04.000Z</time>
      </trkpt>
      <trkpt lat="46.24996" lon="-0.90312">
        <ele>10.60000038147</ele>
        <time>2016-02-15T08:23:17.000Z</time>
      </trkpt>
      <trkpt lat="46.24996" lon="-0.90338">
        <ele>11.199999809265</ele>
        <time>2016-02-15T08:23:33.000Z</time>
      </trkpt>
      <trkpt lat="46.24995" lon="-0.90365">
        <ele>11.800000190735</ele>
        <time>2016-02-15T08:23:47.000Z</time>
      </trkpt>
      <trkpt lat="46.24994" lon="-0.90391">
        <ele>12</ele>
        <time>2016-02-15T08:24:01.000Z</time>
      </trkpt>
      <trkpt lat="46.24995" lon="-0.90417">
        <ele>11.800000190735</ele>
        <time>2016-02-15T08:24:14.000Z</time>
      </trkpt>
      <trkpt lat="46.24997" lon="-0.90445">
        <ele>11.199999809265</ele>
        <time>2016-02-15T08:24:27.000Z</time>
      </trkpt>
      <trkpt lat="46.24996" lon="-0.90471">
        <ele>11.39999961853</ele>
        <time>2016-02-15T08:24:39.000Z</time>
      </trkpt>
      <trkpt lat="46.24996" lon="-0.90475">
        <ele>11.39999961853</ele>
        <time>2016-02-15T08:24:41.000Z</time>
      </trkpt>
      <trkpt lat="46.24996" lon="-0.90483">
        <ele>11.39999961853</ele>
        <time>2016-02-15T08:24:45.000Z</time>
      </trkpt>
      <trkpt lat="46.24996" lon="-0.90509">
        <ele>11.39999961853</ele>
        <time>2016-02-15T08:24:58.000Z</time>
      </trkpt>
      <trkpt lat="46.24998" lon="-0.90537">
        <ele>11.39999961853</ele>
        <time>2016-02-15T08:25:11.000Z</time>
      </trkpt>
      <trkpt lat="46.24999" lon="-0.90564">
        <ele>11.39999961853</ele>
        <time>2016-02-15T08:25:24.000Z</time>
      </trkpt>
      <trkpt lat="46.25002" lon="-0.9059">
        <ele>11.60000038147</ele>
        <time>2016-02-15T08:25:37.000Z</time>
      </trkpt>
      <trkpt lat="46.25003" lon="-0.90617">
        <ele>11.800000190735</ele>
        <time>2016-02-15T08:25:51.000Z</time>
      </trkpt>
      <trkpt lat="46.25004" lon="-0.90643">
        <ele>11.800000190735</ele>
        <time>2016-02-15T08:26:03.000Z</time>
      </trkpt>
      <trkpt lat="46.25003" lon="-0.90664">
        <ele>11.800000190735</ele>
        <time>2016-02-15T08:26:14.000Z</time>
      </trkpt>
      <trkpt lat="46.25002" lon="-0.90668">
        <ele>12</ele>
        <time>2016-02-15T08:26:17.000Z</time>
      </trkpt>
      <trkpt lat="46.24992" lon="-0.90689">
        <ele>12.39999961853</ele>
        <time>2016-02-15T08:26:31.000Z</time>
      </trkpt>
      <trkpt lat="46.24991" lon="-0.90702">
        <ele>12.39999961853</ele>
        <time>2016-02-15T08:26:37.000Z</time>
      </trkpt>
      <trkpt lat="46.2499" lon="-0.90728">
        <ele>12.60000038147</ele>
        <time>2016-02-15T08:26:50.000Z</time>
      </trkpt>
      <trkpt lat="46.24989" lon="-0.9074">
        <ele>12.60000038147</ele>
        <time>2016-02-15T08:26:56.000Z</time>
      </trkpt>
      <trkpt lat="46.24989" lon="-0.90767">
        <ele>12.60000038147</ele>
        <time>2016-02-15T08:27:10.000Z</time>
      </trkpt>
      <trkpt lat="46.24986" lon="-0.90794">
        <ele>12.60000038147</ele>
        <time>2016-02-15T08:27:24.000Z</time>
      </trkpt>
      <trkpt lat="46.24985" lon="-0.90821">
        <ele>12.39999961853</ele>
        <time>2016-02-15T08:27:37.000Z</time>
      </trkpt>
      <trkpt lat="46.2498" lon="-0.90848">
        <ele>12</ele>
        <time>2016-02-15T08:27:50.000Z</time>
      </trkpt>
      <trkpt lat="46.24969" lon="-0.90869">
        <ele>11.60000038147</ele>
        <time>2016-02-15T08:28:03.000Z</time>
      </trkpt>
      <trkpt lat="46.24955" lon="-0.90888">
        <ele>11.39999961853</ele>
        <time>2016-02-15T08:28:15.000Z</time>
      </trkpt>
      <trkpt lat="46.24943" lon="-0.90908">
        <ele>11.39999961853</ele>
        <time>2016-02-15T08:28:27.000Z</time>
      </trkpt>
      <trkpt lat="46.24933" lon="-0.90931">
        <ele>11.60000038147</ele>
        <time>2016-02-15T08:28:39.000Z</time>
      </trkpt>
      <trkpt lat="46.24921" lon="-0.90951">
        <ele>11.60000038147</ele>
        <time>2016-02-15T08:28:50.000Z</time>
      </trkpt>
      <trkpt lat="46.24911" lon="-0.90973">
        <ele>11.60000038147</ele>
        <time>2016-02-15T08:29:02.000Z</time>
      </trkpt>
      <trkpt lat="46.24902" lon="-0.90998">
        <ele>11.800000190735</ele>
        <time>2016-02-15T08:29:17.000Z</time>
      </trkpt>
      <trkpt lat="46.24891" lon="-0.9102">
        <ele>12</ele>
        <time>2016-02-15T08:29:32.000Z</time>
      </trkpt>
      <trkpt lat="46.24885" lon="-0.91032">
        <ele>11.800000190735</ele>
        <time>2016-02-15T08:29:40.000Z</time>
      </trkpt>
      <trkpt lat="46.2488" lon="-0.91041">
        <ele>11.800000190735</ele>
        <time>2016-02-15T08:29:46.000Z</time>
      </trkpt>
      <trkpt lat="46.24876" lon="-0.91049">
        <ele>11.800000190735</ele>
        <time>2016-02-15T08:29:52.000Z</time>
      </trkpt>
      <trkpt lat="46.24865" lon="-0.91072">
        <ele>11.39999961853</ele>
        <time>2016-02-15T08:30:06.000Z</time>
      </trkpt>
      <trkpt lat="46.24853" lon="-0.91091">
        <ele>11</ele>
        <time>2016-02-15T08:30:19.000Z</time>
      </trkpt>
      <trkpt lat="46.24842" lon="-0.91112">
        <ele>10.60000038147</ele>
        <time>2016-02-15T08:30:34.000Z</time>
      </trkpt>
      <trkpt lat="46.24829" lon="-0.91131">
        <ele>10.39999961853</ele>
        <time>2016-02-15T08:30:48.000Z</time>
      </trkpt>
      <trkpt lat="46.24816" lon="-0.9115">
        <ele>10</ele>
        <time>2016-02-15T08:31:01.000Z</time>
      </trkpt>
      <trkpt lat="46.24803" lon="-0.91171">
        <ele>10</ele>
        <time>2016-02-15T08:31:14.000Z</time>
      </trkpt>
      <trkpt lat="46.24793" lon="-0.91193">
        <ele>10</ele>
        <time>2016-02-15T08:31:28.000Z</time>
      </trkpt>
      <trkpt lat="46.2479" lon="-0.91197">
        <ele>10</ele>
        <time>2016-02-15T08:31:31.000Z</time>
      </trkpt>
      <trkpt lat="46.24778" lon="-0.91218">
        <ele>10</ele>
        <time>2016-02-15T08:31:45.000Z</time>
      </trkpt>
      <trkpt lat="46.24777" lon="-0.9122">
        <ele>10</ele>
        <time>2016-02-15T08:31:46.000Z</time>
      </trkpt>
      <trkpt lat="46.24774" lon="-0.91225">
        <ele>10</ele>
        <time>2016-02-15T08:31:50.000Z</time>
      </trkpt>
      <trkpt lat="46.2477" lon="-0.91235">
        <ele>9.8000001907349</ele>
        <time>2016-02-15T08:31:56.000Z</time>
      </trkpt>
      <trkpt lat="46.24768" lon="-0.91238">
        <ele>9.8000001907349</ele>
        <time>2016-02-15T08:31:58.000Z</time>
      </trkpt>
      <trkpt lat="46.24764" lon="-0.91243">
        <ele>9.8000001907349</ele>
        <time>2016-02-15T08:32:02.000Z</time>
      </trkpt>
      <trkpt lat="46.24762" lon="-0.91246">
        <ele>9.8000001907349</ele>
        <time>2016-02-15T08:32:04.000Z</time>
      </trkpt>
      <trkpt lat="46.24756" lon="-0.91255">
        <ele>9.6000003814697</ele>
        <time>2016-02-15T08:32:10.000Z</time>
      </trkpt>
      <trkpt lat="46.24744" lon="-0.91275">
        <ele>9.3999996185303</ele>
        <time>2016-02-15T08:32:23.000Z</time>
      </trkpt>
      <trkpt lat="46.2473" lon="-0.91294">
        <ele>9.1999998092651</ele>
        <time>2016-02-15T08:32:37.000Z</time>
      </trkpt>
      <trkpt lat="46.24727" lon="-0.91299">
        <ele>9</ele>
        <time>2016-02-15T08:32:40.000Z</time>
      </trkpt>
      <trkpt lat="46.24723" lon="-0.91305">
        <ele>9</ele>
        <time>2016-02-15T08:32:45.000Z</time>
      </trkpt>
      <trkpt lat="46.24711" lon="-0.91325">
        <ele>9</ele>
        <time>2016-02-15T08:32:59.000Z</time>
      </trkpt>
      <trkpt lat="46.2471" lon="-0.91326">
        <ele>9</ele>
        <time>2016-02-15T08:33:00.000Z</time>
      </trkpt>
      <trkpt lat="46.24699" lon="-0.91347">
        <ele>9</ele>
        <time>2016-02-15T08:33:14.000Z</time>
      </trkpt>
      <trkpt lat="46.24696" lon="-0.91353">
        <ele>9</ele>
        <time>2016-02-15T08:33:18.000Z</time>
      </trkpt>
      <trkpt lat="46.24685" lon="-0.91374">
        <ele>9</ele>
        <time>2016-02-15T08:33:32.000Z</time>
      </trkpt>
      <trkpt lat="46.24681" lon="-0.91384">
        <ele>9</ele>
        <time>2016-02-15T08:33:38.000Z</time>
      </trkpt>
      <trkpt lat="46.24679" lon="-0.91386">
        <ele>9</ele>
        <time>2016-02-15T08:33:40.000Z</time>
      </trkpt>
      <trkpt lat="46.24666" lon="-0.91405">
        <ele>8.8000001907349</ele>
        <time>2016-02-15T08:33:53.000Z</time>
      </trkpt>
      <trkpt lat="46.24664" lon="-0.91408">
        <ele>8.8000001907349</ele>
        <time>2016-02-15T08:33:55.000Z</time>
      </trkpt>
      <trkpt lat="46.24652" lon="-0.91428">
        <ele>8.6000003814697</ele>
        <time>2016-02-15T08:34:09.000Z</time>
      </trkpt>
      <trkpt lat="46.24646" lon="-0.91438">
        <ele>8.3999996185303</ele>
        <time>2016-02-15T08:34:16.000Z</time>
      </trkpt>
      <trkpt lat="46.24639" lon="-0.91449">
        <ele>8.6000003814697</ele>
        <time>2016-02-15T08:35:31.000Z</time>
      </trkpt>
      <trkpt lat="46.24631" lon="-0.91468">
        <ele>8.6000003814697</ele>
        <time>2016-02-15T08:36:01.000Z</time>
      </trkpt>
      <trkpt lat="46.24618" lon="-0.91489">
        <ele>8.8000001907349</ele>
        <time>2016-02-15T08:36:18.000Z</time>
      </trkpt>
      <trkpt lat="46.24604" lon="-0.91506">
        <ele>9.1999998092651</ele>
        <time>2016-02-15T08:36:31.000Z</time>
      </trkpt>
      <trkpt lat="46.24592" lon="-0.91526">
        <ele>9.1999998092651</ele>
        <time>2016-02-15T08:36:46.000Z</time>
      </trkpt>
      <trkpt lat="46.24595" lon="-0.9153">
        <ele>9.1999998092651</ele>
        <time>2016-02-15T08:37:22.000Z</time>
      </trkpt>
      <trkpt lat="46.24589" lon="-0.91538">
        <ele>9.3999996185303</ele>
        <time>2016-02-15T08:37:28.000Z</time>
      </trkpt>
      <trkpt lat="46.24576" lon="-0.91558">
        <ele>9.6000003814697</ele>
        <time>2016-02-15T08:37:40.000Z</time>
      </trkpt>
      <trkpt lat="46.24563" lon="-0.91579">
        <ele>9.3999996185303</ele>
        <time>2016-02-15T08:37:52.000Z</time>
      </trkpt>
      <trkpt lat="46.24551" lon="-0.91598">
        <ele>9.6000003814697</ele>
        <time>2016-02-15T08:38:03.000Z</time>
      </trkpt>
      <trkpt lat="46.24538" lon="-0.91616">
        <ele>9.8000001907349</ele>
        <time>2016-02-15T08:38:14.000Z</time>
      </trkpt>
      <trkpt lat="46.24525" lon="-0.91635">
        <ele>10</ele>
        <time>2016-02-15T08:38:25.000Z</time>
      </trkpt>
      <trkpt lat="46.24512" lon="-0.91656">
        <ele>10.39999961853</ele>
        <time>2016-02-15T08:38:37.000Z</time>
      </trkpt>
      <trkpt lat="46.24498" lon="-0.91675">
        <ele>11</ele>
        <time>2016-02-15T08:38:49.000Z</time>
      </trkpt>
      <trkpt lat="46.24484" lon="-0.91693">
        <ele>11.800000190735</ele>
        <time>2016-02-15T08:39:03.000Z</time>
      </trkpt>
      <trkpt lat="46.24468" lon="-0.91708">
        <ele>12.199999809265</ele>
        <time>2016-02-15T08:39:16.000Z</time>
      </trkpt>
      <trkpt lat="46.24451" lon="-0.91721">
        <ele>12.60000038147</ele>
        <time>2016-02-15T08:39:30.000Z</time>
      </trkpt>
      <trkpt lat="46.24434" lon="-0.91733">
        <ele>13</ele>
        <time>2016-02-15T08:39:43.000Z</time>
      </trkpt>
      <trkpt lat="46.24418" lon="-0.91746">
        <ele>13.39999961853</ele>
        <time>2016-02-15T08:39:56.000Z</time>
      </trkpt>
      <trkpt lat="46.24402" lon="-0.91759">
        <ele>13.800000190735</ele>
        <time>2016-02-15T08:40:09.000Z</time>
      </trkpt>
      <trkpt lat="46.24385" lon="-0.9177">
        <ele>14</ele>
        <time>2016-02-15T08:40:22.000Z</time>
      </trkpt>
      <trkpt lat="46.24368" lon="-0.91782">
        <ele>14</ele>
        <time>2016-02-15T08:40:33.000Z</time>
      </trkpt>
      <trkpt lat="46.24351" lon="-0.91794">
        <ele>14</ele>
        <time>2016-02-15T08:40:46.000Z</time>
      </trkpt>
      <trkpt lat="46.24335" lon="-0.91808">
        <ele>14</ele>
        <time>2016-02-15T08:40:57.000Z</time>
      </trkpt>
      <trkpt lat="46.24331" lon="-0.91814">
        <ele>13.800000190735</ele>
        <time>2016-02-15T08:41:07.000Z</time>
      </trkpt>
      <trkpt lat="46.24328" lon="-0.91822">
        <ele>13.60000038147</ele>
        <time>2016-02-15T08:42:51.000Z</time>
      </trkpt>
      <trkpt lat="46.24313" lon="-0.91834">
        <ele>13.39999961853</ele>
        <time>2016-02-15T08:43:31.000Z</time>
      </trkpt>
      <trkpt lat="46.24296" lon="-0.91846">
        <ele>13</ele>
        <time>2016-02-15T08:43:44.000Z</time>
      </trkpt>
      <trkpt lat="46.24278" lon="-0.91855">
        <ele>12.800000190735</ele>
        <time>2016-02-15T08:43:56.000Z</time>
      </trkpt>
      <trkpt lat="46.24261" lon="-0.91861">
        <ele>12.60000038147</ele>
        <time>2016-02-15T08:44:08.000Z</time>
      </trkpt>
      <trkpt lat="46.24243" lon="-0.9187">
        <ele>12.39999961853</ele>
        <time>2016-02-15T08:44:21.000Z</time>
      </trkpt>
      <trkpt lat="46.24225" lon="-0.91878">
        <ele>12.199999809265</ele>
        <time>2016-02-15T08:44:34.000Z</time>
      </trkpt>
      <trkpt lat="46.24206" lon="-0.91885">
        <ele>12</ele>
        <time>2016-02-15T08:44:47.000Z</time>
      </trkpt>
      <trkpt lat="46.24188" lon="-0.91886">
        <ele>12</ele>
        <time>2016-02-15T08:45:01.000Z</time>
      </trkpt>
      <trkpt lat="46.24169" lon="-0.91887">
        <ele>12</ele>
        <time>2016-02-15T08:45:14.000Z</time>
      </trkpt>
      <trkpt lat="46.24154" lon="-0.91886">
        <ele>12</ele>
        <time>2016-02-15T08:45:25.000Z</time>
      </trkpt>
      <trkpt lat="46.24147" lon="-0.91885">
        <ele>12</ele>
        <time>2016-02-15T08:45:30.000Z</time>
      </trkpt>
      <trkpt lat="46.24138" lon="-0.91884">
        <ele>12</ele>
        <time>2016-02-15T08:45:37.000Z</time>
      </trkpt>
      <trkpt lat="46.24129" lon="-0.91883">
        <ele>12.199999809265</ele>
        <time>2016-02-15T08:45:44.000Z</time>
      </trkpt>
      <trkpt lat="46.2411" lon="-0.91881">
        <ele>12.39999961853</ele>
        <time>2016-02-15T08:45:58.000Z</time>
      </trkpt>
      <trkpt lat="46.24107" lon="-0.91881">
        <ele>12.39999961853</ele>
        <time>2016-02-15T08:46:01.000Z</time>
      </trkpt>
      <trkpt lat="46.24087" lon="-0.91879">
        <ele>12.800000190735</ele>
        <time>2016-02-15T08:46:15.000Z</time>
      </trkpt>
      <trkpt lat="46.24069" lon="-0.9188">
        <ele>13</ele>
        <time>2016-02-15T08:46:29.000Z</time>
      </trkpt>
      <trkpt lat="46.2405" lon="-0.91886">
        <ele>13</ele>
        <time>2016-02-15T08:46:44.000Z</time>
      </trkpt>
      <trkpt lat="46.24033" lon="-0.91893">
        <ele>12.60000038147</ele>
        <time>2016-02-15T08:46:57.000Z</time>
      </trkpt>
      <trkpt lat="46.24015" lon="-0.91901">
        <ele>12.199999809265</ele>
        <time>2016-02-15T08:47:11.000Z</time>
      </trkpt>
      <trkpt lat="46.23999" lon="-0.91916">
        <ele>12</ele>
        <time>2016-02-15T08:47:26.000Z</time>
      </trkpt>
      <trkpt lat="46.23985" lon="-0.91932">
        <ele>11.60000038147</ele>
        <time>2016-02-15T08:47:39.000Z</time>
      </trkpt>
      <trkpt lat="46.2397" lon="-0.91948">
        <ele>11.39999961853</ele>
        <time>2016-02-15T08:47:51.000Z</time>
      </trkpt>
      <trkpt lat="46.23957" lon="-0.91966">
        <ele>11</ele>
        <time>2016-02-15T08:48:03.000Z</time>
      </trkpt>
      <trkpt lat="46.23944" lon="-0.91986">
        <ele>11</ele>
        <time>2016-02-15T08:48:16.000Z</time>
      </trkpt>
      <trkpt lat="46.23931" lon="-0.92004">
        <ele>11</ele>
        <time>2016-02-15T08:48:28.000Z</time>
      </trkpt>
      <trkpt lat="46.23927" lon="-0.92013">
        <ele>11</ele>
        <time>2016-02-15T08:48:34.000Z</time>
      </trkpt>
      <trkpt lat="46.23918" lon="-0.92024">
        <ele>11</ele>
        <time>2016-02-15T08:48:45.000Z</time>
      </trkpt>
      <trkpt lat="46.23901" lon="-0.92037">
        <ele>11</ele>
        <time>2016-02-15T08:48:58.000Z</time>
      </trkpt>
      <trkpt lat="46.23885" lon="-0.92052">
        <ele>10.800000190735</ele>
        <time>2016-02-15T08:49:10.000Z</time>
      </trkpt>
      <trkpt lat="46.23871" lon="-0.92069">
        <ele>10.60000038147</ele>
        <time>2016-02-15T08:49:25.000Z</time>
      </trkpt>
      <trkpt lat="46.23855" lon="-0.92084">
        <ele>10.199999809265</ele>
        <time>2016-02-15T08:49:38.000Z</time>
      </trkpt>
      <trkpt lat="46.23838" lon="-0.92098">
        <ele>9.8000001907349</ele>
        <time>2016-02-15T08:49:51.000Z</time>
      </trkpt>
      <trkpt lat="46.23822" lon="-0.92109">
        <ele>9.3999996185303</ele>
        <time>2016-02-15T08:50:03.000Z</time>
      </trkpt>
      <trkpt lat="46.23805" lon="-0.92123">
        <ele>9.1999998092651</ele>
        <time>2016-02-15T08:50:16.000Z</time>
      </trkpt>
      <trkpt lat="46.23789" lon="-0.92135">
        <ele>9.3999996185303</ele>
        <time>2016-02-15T08:50:28.000Z</time>
      </trkpt>
      <trkpt lat="46.23772" lon="-0.92146">
        <ele>9.3999996185303</ele>
        <time>2016-02-15T08:50:41.000Z</time>
      </trkpt>
      <trkpt lat="46.23756" lon="-0.92155">
        <ele>9.3999996185303</ele>
        <time>2016-02-15T08:50:52.000Z</time>
      </trkpt>
      <trkpt lat="46.23738" lon="-0.92168">
        <ele>9.6000003814697</ele>
        <time>2016-02-15T08:51:04.000Z</time>
      </trkpt>
      <trkpt lat="46.23721" lon="-0.92177">
        <ele>9.6000003814697</ele>
        <time>2016-02-15T08:51:14.000Z</time>
      </trkpt>
      <trkpt lat="46.23703" lon="-0.92185">
        <ele>9.3999996185303</ele>
        <time>2016-02-15T08:51:25.000Z</time>
      </trkpt>
      <trkpt lat="46.23685" lon="-0.92195">
        <ele>9.3999996185303</ele>
        <time>2016-02-15T08:51:37.000Z</time>
      </trkpt>
      <trkpt lat="46.23667" lon="-0.92203">
        <ele>9.1999998092651</ele>
        <time>2016-02-15T08:51:49.000Z</time>
      </trkpt>
      <trkpt lat="46.23649" lon="-0.92211">
        <ele>9.1999998092651</ele>
        <time>2016-02-15T08:52:00.000Z</time>
      </trkpt>
      <trkpt lat="46.23632" lon="-0.92222">
        <ele>9</ele>
        <time>2016-02-15T08:52:12.000Z</time>
      </trkpt>
      <trkpt lat="46.23615" lon="-0.92232">
        <ele>8.8000001907349</ele>
        <time>2016-02-15T08:52:25.000Z</time>
      </trkpt>
      <trkpt lat="46.23597" lon="-0.92241">
        <ele>8.8000001907349</ele>
        <time>2016-02-15T08:52:38.000Z</time>
      </trkpt>
      <trkpt lat="46.23579" lon="-0.92252">
        <ele>8.6000003814697</ele>
        <time>2016-02-15T08:52:51.000Z</time>
      </trkpt>
      <trkpt lat="46.23561" lon="-0.92258">
        <ele>8.6000003814697</ele>
        <time>2016-02-15T08:53:02.000Z</time>
      </trkpt>
      <trkpt lat="46.23543" lon="-0.92264">
        <ele>8.8000001907349</ele>
        <time>2016-02-15T08:53:13.000Z</time>
      </trkpt>
      <trkpt lat="46.23525" lon="-0.92272">
        <ele>8.8000001907349</ele>
        <time>2016-02-15T08:53:26.000Z</time>
      </trkpt>
      <trkpt lat="46.23508" lon="-0.9228">
        <ele>9</ele>
        <time>2016-02-15T08:53:40.000Z</time>
      </trkpt>
      <trkpt lat="46.23489" lon="-0.92287">
        <ele>9</ele>
        <time>2016-02-15T08:53:53.000Z</time>
      </trkpt>
      <trkpt lat="46.23472" lon="-0.92298">
        <ele>9</ele>
        <time>2016-02-15T08:54:06.000Z</time>
      </trkpt>
      <trkpt lat="46.23454" lon="-0.92309">
        <ele>9.1999998092651</ele>
        <time>2016-02-15T08:54:19.000Z</time>
      </trkpt>
      <trkpt lat="46.23453" lon="-0.9231">
        <ele>9.1999998092651</ele>
        <time>2016-02-15T08:54:20.000Z</time>
      </trkpt>
      <trkpt lat="46.23435" lon="-0.9232">
        <ele>9.3999996185303</ele>
        <time>2016-02-15T08:54:33.000Z</time>
      </trkpt>
      <trkpt lat="46.23417" lon="-0.92329">
        <ele>9.3999996185303</ele>
        <time>2016-02-15T08:54:44.000Z</time>
      </trkpt>
      <trkpt lat="46.234" lon="-0.9234">
        <ele>9.6000003814697</ele>
        <time>2016-02-15T08:54:56.000Z</time>
      </trkpt>
      <trkpt lat="46.23382" lon="-0.92347">
        <ele>9.6000003814697</ele>
        <time>2016-02-15T08:55:07.000Z</time>
      </trkpt>
      <trkpt lat="46.23364" lon="-0.92353">
        <ele>9.3999996185303</ele>
        <time>2016-02-15T08:55:18.000Z</time>
      </trkpt>
      <trkpt lat="46.23347" lon="-0.92363">
        <ele>9.3999996185303</ele>
        <time>2016-02-15T08:55:30.000Z</time>
      </trkpt>
      <trkpt lat="46.23347" lon="-0.92363">
        <ele>9.3999996185303</ele>
        <time>2016-02-15T08:55:31.000Z</time>
      </trkpt>
      <trkpt lat="46.23334" lon="-0.92368">
        <ele>9.1999998092651</ele>
        <time>2016-02-15T08:55:44.000Z</time>
      </trkpt>
      <trkpt lat="46.23316" lon="-0.92374">
        <ele>9</ele>
        <time>2016-02-15T08:55:56.000Z</time>
      </trkpt>
      <trkpt lat="46.23297" lon="-0.92378">
        <ele>8.8000001907349</ele>
        <time>2016-02-15T08:56:09.000Z</time>
      </trkpt>
      <trkpt lat="46.23279" lon="-0.92383">
        <ele>8.6000003814697</ele>
        <time>2016-02-15T08:56:22.000Z</time>
      </trkpt>
      <trkpt lat="46.2326" lon="-0.92386">
        <ele>8.3999996185303</ele>
        <time>2016-02-15T08:56:34.000Z</time>
      </trkpt>
      <trkpt lat="46.23242" lon="-0.92389">
        <ele>8.1999998092651</ele>
        <time>2016-02-15T08:56:45.000Z</time>
      </trkpt>
      <trkpt lat="46.23223" lon="-0.92392">
        <ele>8</ele>
        <time>2016-02-15T08:56:57.000Z</time>
      </trkpt>
      <trkpt lat="46.23204" lon="-0.92395">
        <ele>8.1999998092651</ele>
        <time>2016-02-15T08:57:11.000Z</time>
      </trkpt>
      <trkpt lat="46.23185" lon="-0.92396">
        <ele>8.3999996185303</ele>
        <time>2016-02-15T08:57:23.000Z</time>
      </trkpt>
      <trkpt lat="46.23166" lon="-0.92399">
        <ele>8.6000003814697</ele>
        <time>2016-02-15T08:57:35.000Z</time>
      </trkpt>
      <trkpt lat="46.23148" lon="-0.92405">
        <ele>8.8000001907349</ele>
        <time>2016-02-15T08:57:48.000Z</time>
      </trkpt>
      <trkpt lat="46.23129" lon="-0.92412">
        <ele>8.6000003814697</ele>
        <time>2016-02-15T08:58:00.000Z</time>
      </trkpt>
      <trkpt lat="46.23111" lon="-0.92422">
        <ele>8.1999998092651</ele>
        <time>2016-02-15T08:58:11.000Z</time>
      </trkpt>
      <trkpt lat="46.23092" lon="-0.92432">
        <ele>7.8000001907349</ele>
        <time>2016-02-15T08:58:23.000Z</time>
      </trkpt>
      <trkpt lat="46.23075" lon="-0.92443">
        <ele>7.4000000953674</ele>
        <time>2016-02-15T08:58:35.000Z</time>
      </trkpt>
      <trkpt lat="46.23057" lon="-0.92452">
        <ele>6.8000001907349</ele>
        <time>2016-02-15T08:58:47.000Z</time>
      </trkpt>
      <trkpt lat="46.23038" lon="-0.92457">
        <ele>6.4000000953674</ele>
        <time>2016-02-15T08:58:59.000Z</time>
      </trkpt>
      <trkpt lat="46.23019" lon="-0.92461">
        <ele>6</ele>
        <time>2016-02-15T08:59:11.000Z</time>
      </trkpt>
      <trkpt lat="46.23001" lon="-0.92463">
        <ele>5.5999999046326</ele>
        <time>2016-02-15T08:59:23.000Z</time>
      </trkpt>
      <trkpt lat="46.22982" lon="-0.92459">
        <ele>5.1999998092651</ele>
        <time>2016-02-15T08:59:36.000Z</time>
      </trkpt>
      <trkpt lat="46.22975" lon="-0.92451">
        <ele>5.1999998092651</ele>
        <time>2016-02-15T08:59:42.000Z</time>
      </trkpt>
      <trkpt lat="46.22971" lon="-0.92441">
        <ele>5.4000000953674</ele>
        <time>2016-02-15T08:59:51.000Z</time>
      </trkpt>
      <trkpt lat="46.22967" lon="-0.92414">
        <ele>5.5999999046326</ele>
        <time>2016-02-15T09:00:13.000Z</time>
      </trkpt>
      <trkpt lat="46.22963" lon="-0.92389">
        <ele>6.1999998092651</ele>
        <time>2016-02-15T09:00:26.000Z</time>
      </trkpt>
      <trkpt lat="46.22954" lon="-0.92365">
        <ele>7.1999998092651</ele>
        <time>2016-02-15T09:00:40.000Z</time>
      </trkpt>
      <trkpt lat="46.22939" lon="-0.92351">
        <ele>8</ele>
        <time>2016-02-15T09:00:53.000Z</time>
      </trkpt>
      <trkpt lat="46.2293" lon="-0.9235">
        <ele>7.8000001907349</ele>
        <time>2016-02-15T09:01:45.000Z</time>
      </trkpt>
      <trkpt lat="46.22934" lon="-0.9235">
        <ele>8</ele>
        <time>2016-02-15T09:03:27.000Z</time>
      </trkpt>
      <trkpt lat="46.22932" lon="-0.9235">
        <ele>7.8000001907349</ele>
        <time>2016-02-15T09:03:58.000Z</time>
      </trkpt>
      <trkpt lat="46.22925" lon="-0.92349">
        <ele>7.8000001907349</ele>
        <time>2016-02-15T09:04:05.000Z</time>
      </trkpt>
      <trkpt lat="46.22906" lon="-0.92354">
        <ele>7.1999998092651</ele>
        <time>2016-02-15T09:04:18.000Z</time>
      </trkpt>
      <trkpt lat="46.22894" lon="-0.92362">
        <ele>7</ele>
        <time>2016-02-15T09:04:31.000Z</time>
      </trkpt>
      <trkpt lat="46.22877" lon="-0.92355">
        <ele>7.4000000953674</ele>
        <time>2016-02-15T09:04:45.000Z</time>
      </trkpt>
      <trkpt lat="46.22859" lon="-0.9235">
        <ele>7.8000001907349</ele>
        <time>2016-02-15T09:04:57.000Z</time>
      </trkpt>
      <trkpt lat="46.2284" lon="-0.92348">
        <ele>8.3999996185303</ele>
        <time>2016-02-15T09:05:11.000Z</time>
      </trkpt>
      <trkpt lat="46.22821" lon="-0.92345">
        <ele>8.8000001907349</ele>
        <time>2016-02-15T09:05:26.000Z</time>
      </trkpt>
      <trkpt lat="46.2281" lon="-0.9234">
        <ele>9</ele>
        <time>2016-02-15T09:05:35.000Z</time>
      </trkpt>
      <trkpt lat="46.22793" lon="-0.92342">
        <ele>9.1999998092651</ele>
        <time>2016-02-15T09:05:57.000Z</time>
      </trkpt>
      <trkpt lat="46.22774" lon="-0.92342">
        <ele>9.3999996185303</ele>
        <time>2016-02-15T09:06:11.000Z</time>
      </trkpt>
      <trkpt lat="46.22755" lon="-0.92344">
        <ele>9.6000003814697</ele>
        <time>2016-02-15T09:06:24.000Z</time>
      </trkpt>
      <trkpt lat="46.22736" lon="-0.92351">
        <ele>10</ele>
        <time>2016-02-15T09:06:41.000Z</time>
      </trkpt>
      <trkpt lat="46.2272" lon="-0.92365">
        <ele>10.199999809265</ele>
        <time>2016-02-15T09:06:54.000Z</time>
      </trkpt>
      <trkpt lat="46.22703" lon="-0.92379">
        <ele>10.39999961853</ele>
        <time>2016-02-15T09:07:07.000Z</time>
      </trkpt>
      <trkpt lat="46.22686" lon="-0.92389">
        <ele>10.60000038147</ele>
        <time>2016-02-15T09:07:22.000Z</time>
      </trkpt>
      <trkpt lat="46.22674" lon="-0.92397">
        <ele>10.60000038147</ele>
        <time>2016-02-15T09:07:34.000Z</time>
      </trkpt>
      <trkpt lat="46.22666" lon="-0.92402">
        <ele>10.800000190735</ele>
        <time>2016-02-15T09:07:42.000Z</time>
      </trkpt>
      <trkpt lat="46.22649" lon="-0.92412">
        <ele>11</ele>
        <time>2016-02-15T09:07:58.000Z</time>
      </trkpt>
      <trkpt lat="46.22631" lon="-0.92411">
        <ele>11.199999809265</ele>
        <time>2016-02-15T09:08:16.000Z</time>
      </trkpt>
      <trkpt lat="46.2263" lon="-0.92411">
        <ele>11.199999809265</ele>
        <time>2016-02-15T09:08:17.000Z</time>
      </trkpt>
      <trkpt lat="46.22622" lon="-0.92409">
        <ele>11.199999809265</ele>
        <time>2016-02-15T09:08:24.000Z</time>
      </trkpt>
      <trkpt lat="46.22611" lon="-0.92397">
        <ele>11.39999961853</ele>
        <time>2016-02-15T09:08:35.000Z</time>
      </trkpt>
      <trkpt lat="46.22608" lon="-0.9239">
        <ele>11.39999961853</ele>
        <time>2016-02-15T09:08:40.000Z</time>
      </trkpt>
      <trkpt lat="46.22605" lon="-0.92363">
        <ele>11.800000190735</ele>
        <time>2016-02-15T09:08:56.000Z</time>
      </trkpt>
      <trkpt lat="46.22604" lon="-0.92336">
        <ele>12.199999809265</ele>
        <time>2016-02-15T09:09:11.000Z</time>
      </trkpt>
      <trkpt lat="46.22605" lon="-0.92309">
        <ele>12.39999961853</ele>
        <time>2016-02-15T09:09:27.000Z</time>
      </trkpt>
      <trkpt lat="46.22608" lon="-0.92288">
        <ele>12.60000038147</ele>
        <time>2016-02-15T09:09:37.000Z</time>
      </trkpt>
      <trkpt lat="46.22609" lon="-0.92276">
        <ele>12.800000190735</ele>
        <time>2016-02-15T09:09:43.000Z</time>
      </trkpt>
      <trkpt lat="46.2261" lon="-0.92267">
        <ele>13</ele>
        <time>2016-02-15T09:09:49.000Z</time>
      </trkpt>
      <trkpt lat="46.2261" lon="-0.92239">
        <ele>13.199999809265</ele>
        <time>2016-02-15T09:10:03.000Z</time>
      </trkpt>
      <trkpt lat="46.22611" lon="-0.92213">
        <ele>13.60000038147</ele>
        <time>2016-02-15T09:10:17.000Z</time>
      </trkpt>
      <trkpt lat="46.22611" lon="-0.92211">
        <ele>13.60000038147</ele>
        <time>2016-02-15T09:10:18.000Z</time>
      </trkpt>
      <trkpt lat="46.22612" lon="-0.92202">
        <ele>13.60000038147</ele>
        <time>2016-02-15T09:10:23.000Z</time>
      </trkpt>
      <trkpt lat="46.22614" lon="-0.92174">
        <ele>14</ele>
        <time>2016-02-15T09:10:38.000Z</time>
      </trkpt>
      <trkpt lat="46.22616" lon="-0.92147">
        <ele>14.60000038147</ele>
        <time>2016-02-15T09:10:52.000Z</time>
      </trkpt>
      <trkpt lat="46.22614" lon="-0.92121">
        <ele>15</ele>
        <time>2016-02-15T09:11:06.000Z</time>
      </trkpt>
      <trkpt lat="46.22615" lon="-0.92119">
        <ele>15</ele>
        <time>2016-02-15T09:11:07.000Z</time>
      </trkpt>
      <trkpt lat="46.22614" lon="-0.9211">
        <ele>15.199999809265</ele>
        <time>2016-02-15T09:11:12.000Z</time>
      </trkpt>
      <trkpt lat="46.22614" lon="-0.92102">
        <ele>15.199999809265</ele>
        <time>2016-02-15T09:11:16.000Z</time>
      </trkpt>
      <trkpt lat="46.22618" lon="-0.92077">
        <ele>15.39999961853</ele>
        <time>2016-02-15T09:11:28.000Z</time>
      </trkpt>
      <trkpt lat="46.22615" lon="-0.92051">
        <ele>15.800000190735</ele>
        <time>2016-02-15T09:11:40.000Z</time>
      </trkpt>
      <trkpt lat="46.22614" lon="-0.92047">
        <ele>15.800000190735</ele>
        <time>2016-02-15T09:11:42.000Z</time>
      </trkpt>
      <trkpt lat="46.22615" lon="-0.92038">
        <ele>15.800000190735</ele>
        <time>2016-02-15T09:11:46.000Z</time>
      </trkpt>
      <trkpt lat="46.22615" lon="-0.92012">
        <ele>15.800000190735</ele>
        <time>2016-02-15T09:11:58.000Z</time>
      </trkpt>
      <trkpt lat="46.22615" lon="-0.9201">
        <ele>15.800000190735</ele>
        <time>2016-02-15T09:11:59.000Z</time>
      </trkpt>
      <trkpt lat="46.22615" lon="-0.91983">
        <ele>15.800000190735</ele>
        <time>2016-02-15T09:12:10.000Z</time>
      </trkpt>
      <trkpt lat="46.22617" lon="-0.91957">
        <ele>15.800000190735</ele>
        <time>2016-02-15T09:12:21.000Z</time>
      </trkpt>
      <trkpt lat="46.22618" lon="-0.9193">
        <ele>16.200000762939</ele>
        <time>2016-02-15T09:12:33.000Z</time>
      </trkpt>
      <trkpt lat="46.22616" lon="-0.91904">
        <ele>16.39999961853</ele>
        <time>2016-02-15T09:12:45.000Z</time>
      </trkpt>
      <trkpt lat="46.22613" lon="-0.91877">
        <ele>16.799999237061</ele>
        <time>2016-02-15T09:12:57.000Z</time>
      </trkpt>
      <trkpt lat="46.22606" lon="-0.91851">
        <ele>17.39999961853</ele>
        <time>2016-02-15T09:13:10.000Z</time>
      </trkpt>
      <trkpt lat="46.22604" lon="-0.91823">
        <ele>17.200000762939</ele>
        <time>2016-02-15T09:13:22.000Z</time>
      </trkpt>
      <trkpt lat="46.22604" lon="-0.91797">
        <ele>17</ele>
        <time>2016-02-15T09:13:33.000Z</time>
      </trkpt>
      <trkpt lat="46.22604" lon="-0.91771">
        <ele>17</ele>
        <time>2016-02-15T09:13:44.000Z</time>
      </trkpt>
      <trkpt lat="46.226" lon="-0.91744">
        <ele>17.200000762939</ele>
        <time>2016-02-15T09:13:56.000Z</time>
      </trkpt>
      <trkpt lat="46.22599" lon="-0.91717">
        <ele>17.60000038147</ele>
        <time>2016-02-15T09:14:07.000Z</time>
      </trkpt>
      <trkpt lat="46.22598" lon="-0.91691">
        <ele>18.200000762939</ele>
        <time>2016-02-15T09:14:18.000Z</time>
      </trkpt>
      <trkpt lat="46.22596" lon="-0.91664">
        <ele>18.60000038147</ele>
        <time>2016-02-15T09:14:29.000Z</time>
      </trkpt>
      <trkpt lat="46.22595" lon="-0.91638">
        <ele>18.799999237061</ele>
        <time>2016-02-15T09:14:40.000Z</time>
      </trkpt>
      <trkpt lat="46.22596" lon="-0.91612">
        <ele>18.39999961853</ele>
        <time>2016-02-15T09:14:51.000Z</time>
      </trkpt>
      <trkpt lat="46.22597" lon="-0.91586">
        <ele>18.39999961853</ele>
        <time>2016-02-15T09:15:02.000Z</time>
      </trkpt>
      <trkpt lat="46.22596" lon="-0.9156">
        <ele>18.39999961853</ele>
        <time>2016-02-15T09:15:13.000Z</time>
      </trkpt>
      <trkpt lat="46.22597" lon="-0.91531">
        <ele>18.39999961853</ele>
        <time>2016-02-15T09:15:24.000Z</time>
      </trkpt>
      <trkpt lat="46.22597" lon="-0.91504">
        <ele>18.200000762939</ele>
        <time>2016-02-15T09:15:35.000Z</time>
      </trkpt>
      <trkpt lat="46.22598" lon="-0.91478">
        <ele>18</ele>
        <time>2016-02-15T09:15:47.000Z</time>
      </trkpt>
      <trkpt lat="46.22598" lon="-0.91451">
        <ele>17.39999961853</ele>
        <time>2016-02-15T09:15:59.000Z</time>
      </trkpt>
      <trkpt lat="46.22599" lon="-0.91425">
        <ele>17</ele>
        <time>2016-02-15T09:16:10.000Z</time>
      </trkpt>
      <trkpt lat="46.22599" lon="-0.91407">
        <ele>17</ele>
        <time>2016-02-15T09:16:18.000Z</time>
      </trkpt>
      <trkpt lat="46.22597" lon="-0.91396">
        <ele>17</ele>
        <time>2016-02-15T09:16:23.000Z</time>
      </trkpt>
      <trkpt lat="46.22597" lon="-0.91369">
        <ele>16.39999961853</ele>
        <time>2016-02-15T09:16:35.000Z</time>
      </trkpt>
      <trkpt lat="46.226" lon="-0.91343">
        <ele>16</ele>
        <time>2016-02-15T09:16:46.000Z</time>
      </trkpt>
      <trkpt lat="46.22599" lon="-0.91323">
        <ele>15.800000190735</ele>
        <time>2016-02-15T09:16:56.000Z</time>
      </trkpt>
      <trkpt lat="46.22598" lon="-0.91312">
        <ele>15.60000038147</ele>
        <time>2016-02-15T09:17:01.000Z</time>
      </trkpt>
      <trkpt lat="46.22599" lon="-0.91285">
        <ele>15.199999809265</ele>
        <time>2016-02-15T09:17:15.000Z</time>
      </trkpt>
      <trkpt lat="46.22599" lon="-0.91283">
        <ele>15.199999809265</ele>
        <time>2016-02-15T09:17:16.000Z</time>
      </trkpt>
      <trkpt lat="46.22599" lon="-0.91256">
        <ele>15</ele>
        <time>2016-02-15T09:17:30.000Z</time>
      </trkpt>
      <trkpt lat="46.22601" lon="-0.91229">
        <ele>14.60000038147</ele>
        <time>2016-02-15T09:17:44.000Z</time>
      </trkpt>
      <trkpt lat="46.226" lon="-0.91203">
        <ele>14.60000038147</ele>
        <time>2016-02-15T09:17:57.000Z</time>
      </trkpt>
      <trkpt lat="46.22602" lon="-0.91176">
        <ele>14.39999961853</ele>
        <time>2016-02-15T09:18:10.000Z</time>
      </trkpt>
      <trkpt lat="46.22601" lon="-0.9115">
        <ele>14.199999809265</ele>
        <time>2016-02-15T09:18:23.000Z</time>
      </trkpt>
      <trkpt lat="46.22603" lon="-0.91122">
        <ele>14</ele>
        <time>2016-02-15T09:18:37.000Z</time>
      </trkpt>
      <trkpt lat="46.22603" lon="-0.91096">
        <ele>14</ele>
        <time>2016-02-15T09:18:49.000Z</time>
      </trkpt>
      <trkpt lat="46.22604" lon="-0.91068">
        <ele>14</ele>
        <time>2016-02-15T09:19:00.000Z</time>
      </trkpt>
      <trkpt lat="46.22605" lon="-0.91042">
        <ele>14.60000038147</ele>
        <time>2016-02-15T09:19:11.000Z</time>
      </trkpt>
      <trkpt lat="46.22605" lon="-0.91014">
        <ele>15.60000038147</ele>
        <time>2016-02-15T09:19:22.000Z</time>
      </trkpt>
      <trkpt lat="46.22605" lon="-0.90986">
        <ele>15.60000038147</ele>
        <time>2016-02-15T09:19:34.000Z</time>
      </trkpt>
      <trkpt lat="46.22606" lon="-0.90959">
        <ele>15.39999961853</ele>
        <time>2016-02-15T09:19:45.000Z</time>
      </trkpt>
      <trkpt lat="46.22607" lon="-0.90931">
        <ele>15.199999809265</ele>
        <time>2016-02-15T09:19:57.000Z</time>
      </trkpt>
      <trkpt lat="46.22606" lon="-0.90903">
        <ele>15.39999961853</ele>
        <time>2016-02-15T09:20:09.000Z</time>
      </trkpt>
      <trkpt lat="46.22607" lon="-0.90875">
        <ele>15.800000190735</ele>
        <time>2016-02-15T09:20:20.000Z</time>
      </trkpt>
      <trkpt lat="46.22609" lon="-0.90847">
        <ele>16</ele>
        <time>2016-02-15T09:20:32.000Z</time>
      </trkpt>
      <trkpt lat="46.2261" lon="-0.90819">
        <ele>15.800000190735</ele>
        <time>2016-02-15T09:20:44.000Z</time>
      </trkpt>
      <trkpt lat="46.22611" lon="-0.90792">
        <ele>15.60000038147</ele>
        <time>2016-02-15T09:20:55.000Z</time>
      </trkpt>
      <trkpt lat="46.22611" lon="-0.90764">
        <ele>15.199999809265</ele>
        <time>2016-02-15T09:21:07.000Z</time>
      </trkpt>
      <trkpt lat="46.22611" lon="-0.90738">
        <ele>15.199999809265</ele>
        <time>2016-02-15T09:21:18.000Z</time>
      </trkpt>
      <trkpt lat="46.22612" lon="-0.90712">
        <ele>15.199999809265</ele>
        <time>2016-02-15T09:21:29.000Z</time>
      </trkpt>
      <trkpt lat="46.22612" lon="-0.90685">
        <ele>15.199999809265</ele>
        <time>2016-02-15T09:21:41.000Z</time>
      </trkpt>
      <trkpt lat="46.22612" lon="-0.90658">
        <ele>15</ele>
        <time>2016-02-15T09:21:52.000Z</time>
      </trkpt>
      <trkpt lat="46.22613" lon="-0.9063">
        <ele>14.800000190735</ele>
        <time>2016-02-15T09:22:03.000Z</time>
      </trkpt>
      <trkpt lat="46.22613" lon="-0.90603">
        <ele>14.800000190735</ele>
        <time>2016-02-15T09:22:14.000Z</time>
      </trkpt>
      <trkpt lat="46.22614" lon="-0.90576">
        <ele>14.800000190735</ele>
        <time>2016-02-15T09:22:25.000Z</time>
      </trkpt>
      <trkpt lat="46.22615" lon="-0.90549">
        <ele>14.800000190735</ele>
        <time>2016-02-15T09:22:36.000Z</time>
      </trkpt>
      <trkpt lat="46.22615" lon="-0.90522">
        <ele>14.800000190735</ele>
        <time>2016-02-15T09:22:47.000Z</time>
      </trkpt>
      <trkpt lat="46.22616" lon="-0.90494">
        <ele>15</ele>
        <time>2016-02-15T09:22:59.000Z</time>
      </trkpt>
      <trkpt lat="46.22615" lon="-0.90467">
        <ele>15.199999809265</ele>
        <time>2016-02-15T09:23:10.000Z</time>
      </trkpt>
      <trkpt lat="46.22615" lon="-0.90441">
        <ele>14.800000190735</ele>
        <time>2016-02-15T09:23:21.000Z</time>
      </trkpt>
      <trkpt lat="46.22617" lon="-0.90413">
        <ele>14.60000038147</ele>
        <time>2016-02-15T09:23:32.000Z</time>
      </trkpt>
      <trkpt lat="46.22617" lon="-0.90386">
        <ele>14.60000038147</ele>
        <time>2016-02-15T09:23:43.000Z</time>
      </trkpt>
      <trkpt lat="46.22618" lon="-0.90359">
        <ele>14.60000038147</ele>
        <time>2016-02-15T09:23:54.000Z</time>
      </trkpt>
      <trkpt lat="46.22618" lon="-0.90332">
        <ele>14.60000038147</ele>
        <time>2016-02-15T09:24:06.000Z</time>
      </trkpt>
      <trkpt lat="46.2262" lon="-0.90304">
        <ele>14.60000038147</ele>
        <time>2016-02-15T09:24:17.000Z</time>
      </trkpt>
      <trkpt lat="46.2262" lon="-0.90277">
        <ele>14.39999961853</ele>
        <time>2016-02-15T09:24:28.000Z</time>
      </trkpt>
      <trkpt lat="46.2262" lon="-0.9025">
        <ele>14</ele>
        <time>2016-02-15T09:24:39.000Z</time>
      </trkpt>
      <trkpt lat="46.22622" lon="-0.90224">
        <ele>14</ele>
        <time>2016-02-15T09:24:50.000Z</time>
      </trkpt>
      <trkpt lat="46.22623" lon="-0.90197">
        <ele>14</ele>
        <time>2016-02-15T09:25:01.000Z</time>
      </trkpt>
      <trkpt lat="46.22623" lon="-0.90171">
        <ele>14</ele>
        <time>2016-02-15T09:25:12.000Z</time>
      </trkpt>
      <trkpt lat="46.22623" lon="-0.90145">
        <ele>13.800000190735</ele>
        <time>2016-02-15T09:25:22.000Z</time>
      </trkpt>
      <trkpt lat="46.22623" lon="-0.90117">
        <ele>14</ele>
        <time>2016-02-15T09:25:33.000Z</time>
      </trkpt>
      <trkpt lat="46.22624" lon="-0.90091">
        <ele>14.39999961853</ele>
        <time>2016-02-15T09:25:44.000Z</time>
      </trkpt>
      <trkpt lat="46.22624" lon="-0.90065">
        <ele>14.39999961853</ele>
        <time>2016-02-15T09:25:55.000Z</time>
      </trkpt>
      <trkpt lat="46.22625" lon="-0.90039">
        <ele>13.800000190735</ele>
        <time>2016-02-15T09:26:06.000Z</time>
      </trkpt>
      <trkpt lat="46.22625" lon="-0.90011">
        <ele>13.199999809265</ele>
        <time>2016-02-15T09:26:18.000Z</time>
      </trkpt>
      <trkpt lat="46.22627" lon="-0.89983">
        <ele>12.800000190735</ele>
        <time>2016-02-15T09:26:30.000Z</time>
      </trkpt>
      <trkpt lat="46.22627" lon="-0.89981">
        <ele>13</ele>
        <time>2016-02-15T09:26:31.000Z</time>
      </trkpt>
      <trkpt lat="46.22627" lon="-0.8997">
        <ele>13</ele>
        <time>2016-02-15T09:26:36.000Z</time>
      </trkpt>
      <trkpt lat="46.22626" lon="-0.89943">
        <ele>13</ele>
        <time>2016-02-15T09:26:47.000Z</time>
      </trkpt>
      <trkpt lat="46.22629" lon="-0.89916">
        <ele>13</ele>
        <time>2016-02-15T09:26:59.000Z</time>
      </trkpt>
      <trkpt lat="46.22629" lon="-0.89914">
        <ele>13</ele>
        <time>2016-02-15T09:27:00.000Z</time>
      </trkpt>
      <trkpt lat="46.2263" lon="-0.89887">
        <ele>13</ele>
        <time>2016-02-15T09:27:11.000Z</time>
      </trkpt>
      <trkpt lat="46.22631" lon="-0.89859">
        <ele>13.39999961853</ele>
        <time>2016-02-15T09:27:22.000Z</time>
      </trkpt>
      <trkpt lat="46.22632" lon="-0.89833">
        <ele>13.60000038147</ele>
        <time>2016-02-15T09:27:33.000Z</time>
      </trkpt>
      <trkpt lat="46.2263" lon="-0.89805">
        <ele>13.800000190735</ele>
        <time>2016-02-15T09:27:45.000Z</time>
      </trkpt>
      <trkpt lat="46.22629" lon="-0.89779">
        <ele>13.39999961853</ele>
        <time>2016-02-15T09:27:56.000Z</time>
      </trkpt>
      <trkpt lat="46.22628" lon="-0.89752">
        <ele>13.199999809265</ele>
        <time>2016-02-15T09:28:07.000Z</time>
      </trkpt>
      <trkpt lat="46.22629" lon="-0.89726">
        <ele>12.800000190735</ele>
        <time>2016-02-15T09:28:18.000Z</time>
      </trkpt>
      <trkpt lat="46.2263" lon="-0.89698">
        <ele>12.800000190735</ele>
        <time>2016-02-15T09:28:29.000Z</time>
      </trkpt>
      <trkpt lat="46.22632" lon="-0.8967">
        <ele>12.800000190735</ele>
        <time>2016-02-15T09:28:40.000Z</time>
      </trkpt>
      <trkpt lat="46.22632" lon="-0.89642">
        <ele>12.800000190735</ele>
        <time>2016-02-15T09:28:52.000Z</time>
      </trkpt>
      <trkpt lat="46.22632" lon="-0.89614">
        <ele>12</ele>
        <time>2016-02-15T09:29:03.000Z</time>
      </trkpt>
      <trkpt lat="46.22633" lon="-0.89588">
        <ele>11.39999961853</ele>
        <time>2016-02-15T09:29:14.000Z</time>
      </trkpt>
      <trkpt lat="46.22636" lon="-0.89561">
        <ele>11</ele>
        <time>2016-02-15T09:29:25.000Z</time>
      </trkpt>
      <trkpt lat="46.22635" lon="-0.89533">
        <ele>10.800000190735</ele>
        <time>2016-02-15T09:29:37.000Z</time>
      </trkpt>
      <trkpt lat="46.22636" lon="-0.89507">
        <ele>10.800000190735</ele>
        <time>2016-02-15T09:29:48.000Z</time>
      </trkpt>
      <trkpt lat="46.22637" lon="-0.89481">
        <ele>11</ele>
        <time>2016-02-15T09:29:59.000Z</time>
      </trkpt>
      <trkpt lat="46.22637" lon="-0.89453">
        <ele>10.800000190735</ele>
        <time>2016-02-15T09:30:10.000Z</time>
      </trkpt>
      <trkpt lat="46.22638" lon="-0.89428">
        <ele>10.39999961853</ele>
        <time>2016-02-15T09:30:20.000Z</time>
      </trkpt>
      <trkpt lat="46.22639" lon="-0.89415">
        <ele>10.199999809265</ele>
        <time>2016-02-15T09:30:25.000Z</time>
      </trkpt>
      <trkpt lat="46.22639" lon="-0.89387">
        <ele>10</ele>
        <time>2016-02-15T09:30:36.000Z</time>
      </trkpt>
      <trkpt lat="46.2264" lon="-0.8936">
        <ele>10.39999961853</ele>
        <time>2016-02-15T09:30:47.000Z</time>
      </trkpt>
      <trkpt lat="46.2264" lon="-0.89334">
        <ele>10.60000038147</ele>
        <time>2016-02-15T09:30:57.000Z</time>
      </trkpt>
      <trkpt lat="46.22638" lon="-0.89307">
        <ele>11</ele>
        <time>2016-02-15T09:31:08.000Z</time>
      </trkpt>
      <trkpt lat="46.22634" lon="-0.89281">
        <ele>11.199999809265</ele>
        <time>2016-02-15T09:31:19.000Z</time>
      </trkpt>
      <trkpt lat="46.22627" lon="-0.89256">
        <ele>11.39999961853</ele>
        <time>2016-02-15T09:31:31.000Z</time>
      </trkpt>
      <trkpt lat="46.22622" lon="-0.89231">
        <ele>11.39999961853</ele>
        <time>2016-02-15T09:31:42.000Z</time>
      </trkpt>
      <trkpt lat="46.22616" lon="-0.89205">
        <ele>11</ele>
        <time>2016-02-15T09:31:53.000Z</time>
      </trkpt>
      <trkpt lat="46.22611" lon="-0.89179">
        <ele>10.60000038147</ele>
        <time>2016-02-15T09:32:04.000Z</time>
      </trkpt>
      <trkpt lat="46.22602" lon="-0.89155">
        <ele>10.39999961853</ele>
        <time>2016-02-15T09:32:15.000Z</time>
      </trkpt>
      <trkpt lat="46.22595" lon="-0.8913">
        <ele>10.60000038147</ele>
        <time>2016-02-15T09:32:26.000Z</time>
      </trkpt>
      <trkpt lat="46.22588" lon="-0.89115">
        <ele>10.800000190735</ele>
        <time>2016-02-15T09:32:36.000Z</time>
      </trkpt>
      <trkpt lat="46.22571" lon="-0.89105">
        <ele>11</ele>
        <time>2016-02-15T09:33:00.000Z</time>
      </trkpt>
      <trkpt lat="46.22553" lon="-0.89101">
        <ele>11</ele>
        <time>2016-02-15T09:33:17.000Z</time>
      </trkpt>
      <trkpt lat="46.22554" lon="-0.89101">
        <ele>11</ele>
        <time>2016-02-15T09:33:24.000Z</time>
      </trkpt>
      <trkpt lat="46.22541" lon="-0.89088">
        <ele>11.60000038147</ele>
        <time>2016-02-15T09:33:43.000Z</time>
      </trkpt>
      <trkpt lat="46.22539" lon="-0.89092">
        <ele>11.39999961853</ele>
        <time>2016-02-15T09:34:52.000Z</time>
      </trkpt>
      <trkpt lat="46.22539" lon="-0.89096">
        <ele>11.39999961853</ele>
        <time>2016-02-15T09:34:55.000Z</time>
      </trkpt>
      <trkpt lat="46.22541" lon="-0.891">
        <ele>11.199999809265</ele>
        <time>2016-02-15T09:34:59.000Z</time>
      </trkpt>
      <trkpt lat="46.22546" lon="-0.89105">
        <ele>11</ele>
        <time>2016-02-15T09:35:48.000Z</time>
      </trkpt>
      <trkpt lat="46.22541" lon="-0.89098">
        <ele>11.199999809265</ele>
        <time>2016-02-15T09:37:11.000Z</time>
      </trkpt>
      <trkpt lat="46.22541" lon="-0.89099">
        <ele>11.199999809265</ele>
        <time>2016-02-15T09:39:37.000Z</time>
      </trkpt>
      <trkpt lat="46.22527" lon="-0.891">
        <ele>11.39999961853</ele>
        <time>2016-02-15T09:40:30.000Z</time>
      </trkpt>
      <trkpt lat="46.22526" lon="-0.89098">
        <ele>11.39999961853</ele>
        <time>2016-02-15T09:40:41.000Z</time>
      </trkpt>
      <trkpt lat="46.22522" lon="-0.89098">
        <ele>11.39999961853</ele>
        <time>2016-02-15T09:40:45.000Z</time>
      </trkpt>
      <trkpt lat="46.22503" lon="-0.89099">
        <ele>11.39999961853</ele>
        <time>2016-02-15T09:41:00.000Z</time>
      </trkpt>
      <trkpt lat="46.22484" lon="-0.891">
        <ele>11.39999961853</ele>
        <time>2016-02-15T09:41:14.000Z</time>
      </trkpt>
      <trkpt lat="46.22466" lon="-0.89094">
        <ele>11.60000038147</ele>
        <time>2016-02-15T09:41:27.000Z</time>
      </trkpt>
      <trkpt lat="46.22451" lon="-0.89078">
        <ele>11.800000190735</ele>
        <time>2016-02-15T09:41:42.000Z</time>
      </trkpt>
      <trkpt lat="46.22446" lon="-0.89064">
        <ele>12.199999809265</ele>
        <time>2016-02-15T09:41:50.000Z</time>
      </trkpt>
      <trkpt lat="46.22439" lon="-0.89038">
        <ele>12.199999809265</ele>
        <time>2016-02-15T09:42:03.000Z</time>
      </trkpt>
      <trkpt lat="46.22435" lon="-0.89012">
        <ele>12</ele>
        <time>2016-02-15T09:42:16.000Z</time>
      </trkpt>
      <trkpt lat="46.22433" lon="-0.89003">
        <ele>12.199999809265</ele>
        <time>2016-02-15T09:42:20.000Z</time>
      </trkpt>
      <trkpt lat="46.2243" lon="-0.88985">
        <ele>12.60000038147</ele>
        <time>2016-02-15T09:42:29.000Z</time>
      </trkpt>
      <trkpt lat="46.22428" lon="-0.88959">
        <ele>13.199999809265</ele>
        <time>2016-02-15T09:42:43.000Z</time>
      </trkpt>
      <trkpt lat="46.22425" lon="-0.88933">
        <ele>13.60000038147</ele>
        <time>2016-02-15T09:42:56.000Z</time>
      </trkpt>
      <trkpt lat="46.22424" lon="-0.88907">
        <ele>13.199999809265</ele>
        <time>2016-02-15T09:43:09.000Z</time>
      </trkpt>
      <trkpt lat="46.22424" lon="-0.88881">
        <ele>12.800000190735</ele>
        <time>2016-02-15T09:43:21.000Z</time>
      </trkpt>
      <trkpt lat="46.22422" lon="-0.88855">
        <ele>12.800000190735</ele>
        <time>2016-02-15T09:43:34.000Z</time>
      </trkpt>
      <trkpt lat="46.22421" lon="-0.88828">
        <ele>13.199999809265</ele>
        <time>2016-02-15T09:43:47.000Z</time>
      </trkpt>
      <trkpt lat="46.2242" lon="-0.8881">
        <ele>13.39999961853</ele>
        <time>2016-02-15T09:43:56.000Z</time>
      </trkpt>
      <trkpt lat="46.22419" lon="-0.88802">
        <ele>13.39999961853</ele>
        <time>2016-02-15T09:44:00.000Z</time>
      </trkpt>
      <trkpt lat="46.22414" lon="-0.88775">
        <ele>13.60000038147</ele>
        <time>2016-02-15T09:44:13.000Z</time>
      </trkpt>
      <trkpt lat="46.22411" lon="-0.88757">
        <ele>13.39999961853</ele>
        <time>2016-02-15T09:44:22.000Z</time>
      </trkpt>
      <trkpt lat="46.22407" lon="-0.88732">
        <ele>13.199999809265</ele>
        <time>2016-02-15T09:44:37.000Z</time>
      </trkpt>
      <trkpt lat="46.22406" lon="-0.88704">
        <ele>13.199999809265</ele>
        <time>2016-02-15T09:44:51.000Z</time>
      </trkpt>
      <trkpt lat="46.22401" lon="-0.88678">
        <ele>13.60000038147</ele>
        <time>2016-02-15T09:45:04.000Z</time>
      </trkpt>
      <trkpt lat="46.224" lon="-0.88676">
        <ele>13.60000038147</ele>
        <time>2016-02-15T09:45:05.000Z</time>
      </trkpt>
      <trkpt lat="46.22392" lon="-0.88652">
        <ele>14</ele>
        <time>2016-02-15T09:45:18.000Z</time>
      </trkpt>
      <trkpt lat="46.22386" lon="-0.88627">
        <ele>14.39999961853</ele>
        <time>2016-02-15T09:45:31.000Z</time>
      </trkpt>
      <trkpt lat="46.2238" lon="-0.88602">
        <ele>14.800000190735</ele>
        <time>2016-02-15T09:45:44.000Z</time>
      </trkpt>
      <trkpt lat="46.22378" lon="-0.88596">
        <ele>15</ele>
        <time>2016-02-15T09:45:47.000Z</time>
      </trkpt>
      <trkpt lat="46.22373" lon="-0.8858">
        <ele>15.199999809265</ele>
        <time>2016-02-15T09:46:00.000Z</time>
      </trkpt>
      <trkpt lat="46.22374" lon="-0.8856">
        <ele>15</ele>
        <time>2016-02-15T09:46:15.000Z</time>
      </trkpt>
      <trkpt lat="46.22375" lon="-0.88556">
        <ele>15</ele>
        <time>2016-02-15T09:46:32.000Z</time>
      </trkpt>
      <trkpt lat="46.22393" lon="-0.88554">
        <ele>15</ele>
        <time>2016-02-15T09:46:46.000Z</time>
      </trkpt>
      <trkpt lat="46.22412" lon="-0.88554">
        <ele>14.800000190735</ele>
        <time>2016-02-15T09:46:59.000Z</time>
      </trkpt>
      <trkpt lat="46.22431" lon="-0.88554">
        <ele>14.60000038147</ele>
        <time>2016-02-15T09:47:13.000Z</time>
      </trkpt>
      <trkpt lat="46.2245" lon="-0.88552">
        <ele>14.39999961853</ele>
        <time>2016-02-15T09:47:29.000Z</time>
      </trkpt>
      <trkpt lat="46.22469" lon="-0.88551">
        <ele>14.199999809265</ele>
        <time>2016-02-15T09:47:42.000Z</time>
      </trkpt>
      <trkpt lat="46.22488" lon="-0.88549">
        <ele>14</ele>
        <time>2016-02-15T09:47:56.000Z</time>
      </trkpt>
      <trkpt lat="46.22507" lon="-0.88548">
        <ele>13.800000190735</ele>
        <time>2016-02-15T09:48:08.000Z</time>
      </trkpt>
      <trkpt lat="46.22525" lon="-0.88551">
        <ele>13.60000038147</ele>
        <time>2016-02-15T09:48:22.000Z</time>
      </trkpt>
      <trkpt lat="46.22544" lon="-0.88557">
        <ele>13.199999809265</ele>
        <time>2016-02-15T09:48:36.000Z</time>
      </trkpt>
      <trkpt lat="46.22562" lon="-0.88562">
        <ele>13</ele>
        <time>2016-02-15T09:48:49.000Z</time>
      </trkpt>
      <trkpt lat="46.22581" lon="-0.88565">
        <ele>13.800000190735</ele>
        <time>2016-02-15T09:49:02.000Z</time>
      </trkpt>
      <trkpt lat="46.226" lon="-0.88569">
        <ele>14.60000038147</ele>
        <time>2016-02-15T09:49:16.000Z</time>
      </trkpt>
      <trkpt lat="46.22619" lon="-0.88569">
        <ele>15.199999809265</ele>
        <time>2016-02-15T09:49:30.000Z</time>
      </trkpt>
      <trkpt lat="46.22624" lon="-0.88571">
        <ele>15.39999961853</ele>
        <time>2016-02-15T09:49:34.000Z</time>
      </trkpt>
      <trkpt lat="46.22642" lon="-0.88573">
        <ele>16</ele>
        <time>2016-02-15T09:49:46.000Z</time>
      </trkpt>
      <trkpt lat="46.2265" lon="-0.88575">
        <ele>16.200000762939</ele>
        <time>2016-02-15T09:49:51.000Z</time>
      </trkpt>
      <trkpt lat="46.22668" lon="-0.88582">
        <ele>16.39999961853</ele>
        <time>2016-02-15T09:50:04.000Z</time>
      </trkpt>
      <trkpt lat="46.22672" lon="-0.88581">
        <ele>16.39999961853</ele>
        <time>2016-02-15T09:50:09.000Z</time>
      </trkpt>
      <trkpt lat="46.22686" lon="-0.88584">
        <ele>16.39999961853</ele>
        <time>2016-02-15T09:50:20.000Z</time>
      </trkpt>
      <trkpt lat="46.22696" lon="-0.88595">
        <ele>16.39999961853</ele>
        <time>2016-02-15T09:50:29.000Z</time>
      </trkpt>
      <trkpt lat="46.22709" lon="-0.88616">
        <ele>16.799999237061</ele>
        <time>2016-02-15T09:50:43.000Z</time>
      </trkpt>
      <trkpt lat="46.22721" lon="-0.88636">
        <ele>17</ele>
        <time>2016-02-15T09:50:58.000Z</time>
      </trkpt>
      <trkpt lat="46.22731" lon="-0.8866">
        <ele>16.799999237061</ele>
        <time>2016-02-15T09:51:13.000Z</time>
      </trkpt>
      <trkpt lat="46.2274" lon="-0.88683">
        <ele>16.39999961853</ele>
        <time>2016-02-15T09:51:26.000Z</time>
      </trkpt>
      <trkpt lat="46.22752" lon="-0.88705">
        <ele>16</ele>
        <time>2016-02-15T09:51:40.000Z</time>
      </trkpt>
      <trkpt lat="46.22765" lon="-0.88724">
        <ele>15.60000038147</ele>
        <time>2016-02-15T09:51:54.000Z</time>
      </trkpt>
      <trkpt lat="46.22779" lon="-0.88742">
        <ele>15</ele>
        <time>2016-02-15T09:52:08.000Z</time>
      </trkpt>
      <trkpt lat="46.22794" lon="-0.88758">
        <ele>14.60000038147</ele>
        <time>2016-02-15T09:52:22.000Z</time>
      </trkpt>
      <trkpt lat="46.22809" lon="-0.88772">
        <ele>14.39999961853</ele>
        <time>2016-02-15T09:52:36.000Z</time>
      </trkpt>
      <trkpt lat="46.22825" lon="-0.88784">
        <ele>13.800000190735</ele>
        <time>2016-02-15T09:52:49.000Z</time>
      </trkpt>
      <trkpt lat="46.22842" lon="-0.88799">
        <ele>13.800000190735</ele>
        <time>2016-02-15T09:53:03.000Z</time>
      </trkpt>
      <trkpt lat="46.22856" lon="-0.88815">
        <ele>14</ele>
        <time>2016-02-15T09:53:19.000Z</time>
      </trkpt>
      <trkpt lat="46.22871" lon="-0.88829">
        <ele>14</ele>
        <time>2016-02-15T09:53:31.000Z</time>
      </trkpt>
      <trkpt lat="46.22886" lon="-0.88846">
        <ele>14</ele>
        <time>2016-02-15T09:53:43.000Z</time>
      </trkpt>
      <trkpt lat="46.22903" lon="-0.88857">
        <ele>14</ele>
        <time>2016-02-15T09:53:56.000Z</time>
      </trkpt>
      <trkpt lat="46.2292" lon="-0.88866">
        <ele>14</ele>
        <time>2016-02-15T09:54:10.000Z</time>
      </trkpt>
      <trkpt lat="46.22929" lon="-0.88869">
        <ele>13.800000190735</ele>
        <time>2016-02-15T09:54:17.000Z</time>
      </trkpt>
      <trkpt lat="46.22948" lon="-0.88877">
        <ele>13.60000038147</ele>
        <time>2016-02-15T09:54:32.000Z</time>
      </trkpt>
      <trkpt lat="46.22967" lon="-0.88882">
        <ele>13.199999809265</ele>
        <time>2016-02-15T09:54:46.000Z</time>
      </trkpt>
      <trkpt lat="46.22986" lon="-0.88885">
        <ele>13</ele>
        <time>2016-02-15T09:54:59.000Z</time>
      </trkpt>
      <trkpt lat="46.23005" lon="-0.88888">
        <ele>13</ele>
        <time>2016-02-15T09:55:12.000Z</time>
      </trkpt>
      <trkpt lat="46.23022" lon="-0.88893">
        <ele>13</ele>
        <time>2016-02-15T09:55:25.000Z</time>
      </trkpt>
      <trkpt lat="46.2304" lon="-0.88895">
        <ele>13</ele>
        <time>2016-02-15T09:55:44.000Z</time>
      </trkpt>
      <trkpt lat="46.23058" lon="-0.88891">
        <ele>13</ele>
        <time>2016-02-15T09:56:01.000Z</time>
      </trkpt>
      <trkpt lat="46.23075" lon="-0.88883">
        <ele>13.800000190735</ele>
        <time>2016-02-15T09:56:15.000Z</time>
      </trkpt>
      <trkpt lat="46.23093" lon="-0.88877">
        <ele>14.800000190735</ele>
        <time>2016-02-15T09:56:29.000Z</time>
      </trkpt>
      <trkpt lat="46.23111" lon="-0.88879">
        <ele>16</ele>
        <time>2016-02-15T09:56:45.000Z</time>
      </trkpt>
      <trkpt lat="46.23128" lon="-0.88891">
        <ele>17</ele>
        <time>2016-02-15T09:57:00.000Z</time>
      </trkpt>
      <trkpt lat="46.23141" lon="-0.8891">
        <ele>17.799999237061</ele>
        <time>2016-02-15T09:57:14.000Z</time>
      </trkpt>
      <trkpt lat="46.23153" lon="-0.8893">
        <ele>18.200000762939</ele>
        <time>2016-02-15T09:57:27.000Z</time>
      </trkpt>
      <trkpt lat="46.23164" lon="-0.88951">
        <ele>18.60000038147</ele>
        <time>2016-02-15T09:57:41.000Z</time>
      </trkpt>
      <trkpt lat="46.23176" lon="-0.88972">
        <ele>19.200000762939</ele>
        <time>2016-02-15T09:57:55.000Z</time>
      </trkpt>
      <trkpt lat="46.23192" lon="-0.88986">
        <ele>19.60000038147</ele>
        <time>2016-02-15T09:58:09.000Z</time>
      </trkpt>
      <trkpt lat="46.23206" lon="-0.89003">
        <ele>19.799999237061</ele>
        <time>2016-02-15T09:58:23.000Z</time>
      </trkpt>
      <trkpt lat="46.23222" lon="-0.89016">
        <ele>20.200000762939</ele>
        <time>2016-02-15T09:58:37.000Z</time>
      </trkpt>
      <trkpt lat="46.2324" lon="-0.8901">
        <ele>20.60000038147</ele>
        <time>2016-02-15T09:58:51.000Z</time>
      </trkpt>
      <trkpt lat="46.23258" lon="-0.89003">
        <ele>21</ele>
        <time>2016-02-15T09:59:07.000Z</time>
      </trkpt>
      <trkpt lat="46.23276" lon="-0.88996">
        <ele>21.200000762939</ele>
        <time>2016-02-15T09:59:19.000Z</time>
      </trkpt>
      <trkpt lat="46.23279" lon="-0.88995">
        <ele>21.39999961853</ele>
        <time>2016-02-15T09:59:21.000Z</time>
      </trkpt>
      <trkpt lat="46.23283" lon="-0.88991">
        <ele>21.39999961853</ele>
        <time>2016-02-15T09:59:25.000Z</time>
      </trkpt>
      <trkpt lat="46.233" lon="-0.88982">
        <ele>21.799999237061</ele>
        <time>2016-02-15T09:59:39.000Z</time>
      </trkpt>
      <trkpt lat="46.23317" lon="-0.88971">
        <ele>22</ele>
        <time>2016-02-15T09:59:52.000Z</time>
      </trkpt>
      <trkpt lat="46.23333" lon="-0.88958">
        <ele>22.39999961853</ele>
        <time>2016-02-15T10:00:07.000Z</time>
      </trkpt>
      <trkpt lat="46.2335" lon="-0.88946">
        <ele>22.60000038147</ele>
        <time>2016-02-15T10:00:21.000Z</time>
      </trkpt>
      <trkpt lat="46.23367" lon="-0.88935">
        <ele>22.799999237061</ele>
        <time>2016-02-15T10:00:35.000Z</time>
      </trkpt>
      <trkpt lat="46.23384" lon="-0.88924">
        <ele>23.200000762939</ele>
        <time>2016-02-15T10:00:54.000Z</time>
      </trkpt>
      <trkpt lat="46.23393" lon="-0.88917">
        <ele>23.200000762939</ele>
        <time>2016-02-15T10:01:04.000Z</time>
      </trkpt>
      <trkpt lat="46.23397" lon="-0.88914">
        <ele>23.39999961853</ele>
        <time>2016-02-15T10:01:08.000Z</time>
      </trkpt>
      <trkpt lat="46.23415" lon="-0.88909">
        <ele>24</ele>
        <time>2016-02-15T10:01:23.000Z</time>
      </trkpt>
      <trkpt lat="46.23433" lon="-0.88912">
        <ele>24.60000038147</ele>
        <time>2016-02-15T10:01:37.000Z</time>
      </trkpt>
      <trkpt lat="46.23452" lon="-0.88919">
        <ele>25.200000762939</ele>
        <time>2016-02-15T10:01:52.000Z</time>
      </trkpt>
      <trkpt lat="46.2347" lon="-0.88925">
        <ele>25.200000762939</ele>
        <time>2016-02-15T10:02:06.000Z</time>
      </trkpt>
      <trkpt lat="46.23488" lon="-0.88931">
        <ele>24.799999237061</ele>
        <time>2016-02-15T10:02:21.000Z</time>
      </trkpt>
      <trkpt lat="46.23505" lon="-0.88939">
        <ele>24.60000038147</ele>
        <time>2016-02-15T10:02:35.000Z</time>
      </trkpt>
      <trkpt lat="46.23522" lon="-0.8895">
        <ele>24.60000038147</ele>
        <time>2016-02-15T10:02:50.000Z</time>
      </trkpt>
      <trkpt lat="46.2353" lon="-0.88955">
        <ele>24.60000038147</ele>
        <time>2016-02-15T10:02:57.000Z</time>
      </trkpt>
      <trkpt lat="46.23544" lon="-0.88972">
        <ele>24.799999237061</ele>
        <time>2016-02-15T10:03:12.000Z</time>
      </trkpt>
      <trkpt lat="46.23558" lon="-0.88988">
        <ele>25</ele>
        <time>2016-02-15T10:03:26.000Z</time>
      </trkpt>
      <trkpt lat="46.23573" lon="-0.89004">
        <ele>25.200000762939</ele>
        <time>2016-02-15T10:03:41.000Z</time>
      </trkpt>
      <trkpt lat="46.23589" lon="-0.8902">
        <ele>25.39999961853</ele>
        <time>2016-02-15T10:03:56.000Z</time>
      </trkpt>
      <trkpt lat="46.23604" lon="-0.89035">
        <ele>25.200000762939</ele>
        <time>2016-02-15T10:04:10.000Z</time>
      </trkpt>
      <trkpt lat="46.23617" lon="-0.89055">
        <ele>25</ele>
        <time>2016-02-15T10:04:24.000Z</time>
      </trkpt>
      <trkpt lat="46.23623" lon="-0.8906">
        <ele>25</ele>
        <time>2016-02-15T10:04:30.000Z</time>
      </trkpt>
      <trkpt lat="46.23626" lon="-0.89065">
        <ele>25</ele>
        <time>2016-02-15T10:04:35.000Z</time>
      </trkpt>
      <trkpt lat="46.2364" lon="-0.89083">
        <ele>25</ele>
        <time>2016-02-15T10:04:51.000Z</time>
      </trkpt>
      <trkpt lat="46.23656" lon="-0.89098">
        <ele>25.200000762939</ele>
        <time>2016-02-15T10:05:06.000Z</time>
      </trkpt>
      <trkpt lat="46.23672" lon="-0.8911">
        <ele>25.39999961853</ele>
        <time>2016-02-15T10:05:20.000Z</time>
      </trkpt>
      <trkpt lat="46.23689" lon="-0.89117">
        <ele>25.200000762939</ele>
        <time>2016-02-15T10:05:35.000Z</time>
      </trkpt>
      <trkpt lat="46.23708" lon="-0.89122">
        <ele>25.200000762939</ele>
        <time>2016-02-15T10:05:50.000Z</time>
      </trkpt>
      <trkpt lat="46.23726" lon="-0.89125">
        <ele>25.200000762939</ele>
        <time>2016-02-15T10:06:06.000Z</time>
      </trkpt>
      <trkpt lat="46.23745" lon="-0.89125">
        <ele>25.200000762939</ele>
        <time>2016-02-15T10:06:21.000Z</time>
      </trkpt>
      <trkpt lat="46.23764" lon="-0.89126">
        <ele>25.39999961853</ele>
        <time>2016-02-15T10:06:36.000Z</time>
      </trkpt>
      <trkpt lat="46.23765" lon="-0.89126">
        <ele>25.39999961853</ele>
        <time>2016-02-15T10:06:37.000Z</time>
      </trkpt>
      <trkpt lat="46.2377" lon="-0.89125">
        <ele>25.39999961853</ele>
        <time>2016-02-15T10:06:41.000Z</time>
      </trkpt>
      <trkpt lat="46.23788" lon="-0.89126">
        <ele>25.799999237061</ele>
        <time>2016-02-15T10:06:56.000Z</time>
      </trkpt>
      <trkpt lat="46.23791" lon="-0.89126">
        <ele>25.799999237061</ele>
        <time>2016-02-15T10:06:59.000Z</time>
      </trkpt>
      <trkpt lat="46.2381" lon="-0.89125">
        <ele>26</ele>
        <time>2016-02-15T10:07:15.000Z</time>
      </trkpt>
      <trkpt lat="46.23829" lon="-0.89124">
        <ele>26.200000762939</ele>
        <time>2016-02-15T10:07:30.000Z</time>
      </trkpt>
      <trkpt lat="46.23848" lon="-0.89122">
        <ele>26.200000762939</ele>
        <time>2016-02-15T10:07:45.000Z</time>
      </trkpt>
      <trkpt lat="46.23867" lon="-0.89121">
        <ele>26.200000762939</ele>
        <time>2016-02-15T10:08:00.000Z</time>
      </trkpt>
      <trkpt lat="46.23885" lon="-0.8912">
        <ele>26.200000762939</ele>
        <time>2016-02-15T10:08:15.000Z</time>
      </trkpt>
      <trkpt lat="46.23905" lon="-0.8912">
        <ele>26.200000762939</ele>
        <time>2016-02-15T10:08:30.000Z</time>
      </trkpt>
      <trkpt lat="46.23919" lon="-0.89121">
        <ele>26.200000762939</ele>
        <time>2016-02-15T10:08:41.000Z</time>
      </trkpt>
      <trkpt lat="46.23927" lon="-0.89123">
        <ele>26.200000762939</ele>
        <time>2016-02-15T10:08:48.000Z</time>
      </trkpt>
      <trkpt lat="46.23928" lon="-0.89122">
        <ele>26.200000762939</ele>
        <time>2016-02-15T10:08:49.000Z</time>
      </trkpt>
      <trkpt lat="46.23936" lon="-0.89123">
        <ele>26.200000762939</ele>
        <time>2016-02-15T10:08:57.000Z</time>
      </trkpt>
      <trkpt lat="46.23941" lon="-0.89122">
        <ele>26.200000762939</ele>
        <time>2016-02-15T10:09:01.000Z</time>
      </trkpt>
      <trkpt lat="46.2396" lon="-0.89122">
        <ele>26.200000762939</ele>
        <time>2016-02-15T10:09:16.000Z</time>
      </trkpt>
      <trkpt lat="46.23979" lon="-0.89123">
        <ele>26.200000762939</ele>
        <time>2016-02-15T10:09:31.000Z</time>
      </trkpt>
      <trkpt lat="46.23997" lon="-0.89121">
        <ele>26</ele>
        <time>2016-02-15T10:09:45.000Z</time>
      </trkpt>
      <trkpt lat="46.24016" lon="-0.8912">
        <ele>26</ele>
        <time>2016-02-15T10:10:00.000Z</time>
      </trkpt>
      <trkpt lat="46.24035" lon="-0.89119">
        <ele>26</ele>
        <time>2016-02-15T10:10:14.000Z</time>
      </trkpt>
      <trkpt lat="46.24053" lon="-0.89117">
        <ele>26</ele>
        <time>2016-02-15T10:10:28.000Z</time>
      </trkpt>
      <trkpt lat="46.24072" lon="-0.8912">
        <ele>25.60000038147</ele>
        <time>2016-02-15T10:10:44.000Z</time>
      </trkpt>
      <trkpt lat="46.2409" lon="-0.89124">
        <ele>24.60000038147</ele>
        <time>2016-02-15T10:10:59.000Z</time>
      </trkpt>
      <trkpt lat="46.24108" lon="-0.89125">
        <ele>23.39999961853</ele>
        <time>2016-02-15T10:11:13.000Z</time>
      </trkpt>
      <trkpt lat="46.24126" lon="-0.89125">
        <ele>22.39999961853</ele>
        <time>2016-02-15T10:11:28.000Z</time>
      </trkpt>
      <trkpt lat="46.24145" lon="-0.89125">
        <ele>21.200000762939</ele>
        <time>2016-02-15T10:11:44.000Z</time>
      </trkpt>
      <trkpt lat="46.24163" lon="-0.89123">
        <ele>20.799999237061</ele>
        <time>2016-02-15T10:11:57.000Z</time>
      </trkpt>
      <trkpt lat="46.24182" lon="-0.89122">
        <ele>20.39999961853</ele>
        <time>2016-02-15T10:12:11.000Z</time>
      </trkpt>
      <trkpt lat="46.24201" lon="-0.8912">
        <ele>20</ele>
        <time>2016-02-15T10:12:26.000Z</time>
      </trkpt>
      <trkpt lat="46.2422" lon="-0.89119">
        <ele>19.39999961853</ele>
        <time>2016-02-15T10:12:40.000Z</time>
      </trkpt>
      <trkpt lat="46.24239" lon="-0.89116">
        <ele>18.799999237061</ele>
        <time>2016-02-15T10:12:54.000Z</time>
      </trkpt>
      <trkpt lat="46.24258" lon="-0.89114">
        <ele>18</ele>
        <time>2016-02-15T10:13:07.000Z</time>
      </trkpt>
      <trkpt lat="46.24276" lon="-0.89112">
        <ele>17.60000038147</ele>
        <time>2016-02-15T10:13:21.000Z</time>
      </trkpt>
      <trkpt lat="46.24295" lon="-0.89108">
        <ele>17</ele>
        <time>2016-02-15T10:13:35.000Z</time>
      </trkpt>
      <trkpt lat="46.24313" lon="-0.89106">
        <ele>16.60000038147</ele>
        <time>2016-02-15T10:13:49.000Z</time>
      </trkpt>
      <trkpt lat="46.24331" lon="-0.89105">
        <ele>16.39999961853</ele>
        <time>2016-02-15T10:14:03.000Z</time>
      </trkpt>
      <trkpt lat="46.24347" lon="-0.89103">
        <ele>16.200000762939</ele>
        <time>2016-02-15T10:14:16.000Z</time>
      </trkpt>
      <trkpt lat="46.24357" lon="-0.89103">
        <ele>16</ele>
        <time>2016-02-15T10:14:24.000Z</time>
      </trkpt>
      <trkpt lat="46.24375" lon="-0.89103">
        <ele>15.39999961853</ele>
        <time>2016-02-15T10:14:38.000Z</time>
      </trkpt>
      <trkpt lat="46.24394" lon="-0.89102">
        <ele>15</ele>
        <time>2016-02-15T10:14:52.000Z</time>
      </trkpt>
      <trkpt lat="46.24412" lon="-0.891">
        <ele>14.800000190735</ele>
        <time>2016-02-15T10:15:06.000Z</time>
      </trkpt>
      <trkpt lat="46.24431" lon="-0.89102">
        <ele>14.60000038147</ele>
        <time>2016-02-15T10:15:20.000Z</time>
      </trkpt>
      <trkpt lat="46.24449" lon="-0.89105">
        <ele>14.39999961853</ele>
        <time>2016-02-15T10:15:34.000Z</time>
      </trkpt>
      <trkpt lat="46.24468" lon="-0.89107">
        <ele>14.199999809265</ele>
        <time>2016-02-15T10:15:49.000Z</time>
      </trkpt>
      <trkpt lat="46.24487" lon="-0.89107">
        <ele>14</ele>
        <time>2016-02-15T10:16:03.000Z</time>
      </trkpt>
      <trkpt lat="46.24506" lon="-0.89106">
        <ele>14</ele>
        <time>2016-02-15T10:16:17.000Z</time>
      </trkpt>
      <trkpt lat="46.24525" lon="-0.89105">
        <ele>14</ele>
        <time>2016-02-15T10:16:32.000Z</time>
      </trkpt>
      <trkpt lat="46.24544" lon="-0.89109">
        <ele>14</ele>
        <time>2016-02-15T10:16:48.000Z</time>
      </trkpt>
      <trkpt lat="46.24562" lon="-0.89117">
        <ele>14</ele>
        <time>2016-02-15T10:17:03.000Z</time>
      </trkpt>
      <trkpt lat="46.2458" lon="-0.89127">
        <ele>13.60000038147</ele>
        <time>2016-02-15T10:17:19.000Z</time>
      </trkpt>
      <trkpt lat="46.24598" lon="-0.89133">
        <ele>13.60000038147</ele>
        <time>2016-02-15T10:17:33.000Z</time>
      </trkpt>
      <trkpt lat="46.24615" lon="-0.8914">
        <ele>13.39999961853</ele>
        <time>2016-02-15T10:17:47.000Z</time>
      </trkpt>
      <trkpt lat="46.24633" lon="-0.89149">
        <ele>13.199999809265</ele>
        <time>2016-02-15T10:18:02.000Z</time>
      </trkpt>
      <trkpt lat="46.24651" lon="-0.89154">
        <ele>13</ele>
        <time>2016-02-15T10:18:17.000Z</time>
      </trkpt>
      <trkpt lat="46.24669" lon="-0.89162">
        <ele>12.800000190735</ele>
        <time>2016-02-15T10:18:32.000Z</time>
      </trkpt>
      <trkpt lat="46.24687" lon="-0.89169">
        <ele>12.39999961853</ele>
        <time>2016-02-15T10:18:47.000Z</time>
      </trkpt>
      <trkpt lat="46.24706" lon="-0.89172">
        <ele>12</ele>
        <time>2016-02-15T10:19:02.000Z</time>
      </trkpt>
      <trkpt lat="46.24723" lon="-0.89178">
        <ele>11.60000038147</ele>
        <time>2016-02-15T10:19:15.000Z</time>
      </trkpt>
      <trkpt lat="46.24728" lon="-0.89181">
        <ele>11.60000038147</ele>
        <time>2016-02-15T10:19:19.000Z</time>
      </trkpt>
      <trkpt lat="46.24736" lon="-0.89186">
        <ele>11.39999961853</ele>
        <time>2016-02-15T10:19:27.000Z</time>
      </trkpt>
      <trkpt lat="46.24753" lon="-0.89198">
        <ele>11.39999961853</ele>
        <time>2016-02-15T10:19:42.000Z</time>
      </trkpt>
      <trkpt lat="46.2477" lon="-0.8921">
        <ele>11</ele>
        <time>2016-02-15T10:19:56.000Z</time>
      </trkpt>
      <trkpt lat="46.24786" lon="-0.89222">
        <ele>10.60000038147</ele>
        <time>2016-02-15T10:20:10.000Z</time>
      </trkpt>
      <trkpt lat="46.24803" lon="-0.89231">
        <ele>10.39999961853</ele>
        <time>2016-02-15T10:20:23.000Z</time>
      </trkpt>
      <trkpt lat="46.24822" lon="-0.89236">
        <ele>9.6000003814697</ele>
        <time>2016-02-15T10:20:38.000Z</time>
      </trkpt>
      <trkpt lat="46.24841" lon="-0.89237">
        <ele>9</ele>
        <time>2016-02-15T10:20:53.000Z</time>
      </trkpt>
      <trkpt lat="46.24843" lon="-0.89237">
        <ele>8.8000001907349</ele>
        <time>2016-02-15T10:20:55.000Z</time>
      </trkpt>
      <trkpt lat="46.24852" lon="-0.89235">
        <ele>8.6000003814697</ele>
        <time>2016-02-15T10:21:02.000Z</time>
      </trkpt>
      <trkpt lat="46.24871" lon="-0.89231">
        <ele>8</ele>
        <time>2016-02-15T10:21:16.000Z</time>
      </trkpt>
      <trkpt lat="46.24889" lon="-0.89225">
        <ele>7.1999998092651</ele>
        <time>2016-02-15T10:21:31.000Z</time>
      </trkpt>
      <trkpt lat="46.24907" lon="-0.89221">
        <ele>6.8000001907349</ele>
        <time>2016-02-15T10:21:48.000Z</time>
      </trkpt>
      <trkpt lat="46.24926" lon="-0.89219">
        <ele>6.5999999046326</ele>
        <time>2016-02-15T10:22:03.000Z</time>
      </trkpt>
      <trkpt lat="46.24945" lon="-0.89218">
        <ele>6.4000000953674</ele>
        <time>2016-02-15T10:22:18.000Z</time>
      </trkpt>
      <trkpt lat="46.24963" lon="-0.89213">
        <ele>6.4000000953674</ele>
        <time>2016-02-15T10:22:32.000Z</time>
      </trkpt>
      <trkpt lat="46.24981" lon="-0.89209">
        <ele>6</ele>
        <time>2016-02-15T10:22:47.000Z</time>
      </trkpt>
      <trkpt lat="46.25" lon="-0.89205">
        <ele>5.5999999046326</ele>
        <time>2016-02-15T10:23:02.000Z</time>
      </trkpt>
      <trkpt lat="46.25017" lon="-0.89197">
        <ele>5.1999998092651</ele>
        <time>2016-02-15T10:23:17.000Z</time>
      </trkpt>
      <trkpt lat="46.25035" lon="-0.89192">
        <ele>5</ele>
        <time>2016-02-15T10:23:31.000Z</time>
      </trkpt>
      <trkpt lat="46.25054" lon="-0.89186">
        <ele>4.5999999046326</ele>
        <time>2016-02-15T10:23:47.000Z</time>
      </trkpt>
      <trkpt lat="46.25068" lon="-0.89182">
        <ele>4.5999999046326</ele>
        <time>2016-02-15T10:24:00.000Z</time>
      </trkpt>
      <trkpt lat="46.25065" lon="-0.89174">
        <ele>4.4000000953674</ele>
        <time>2016-02-15T10:24:09.000Z</time>
      </trkpt>
      <trkpt lat="46.25065" lon="-0.89164">
        <ele>4.4000000953674</ele>
        <time>2016-02-15T10:24:14.000Z</time>
      </trkpt>
      <trkpt lat="46.25064" lon="-0.89137">
        <ele>4</ele>
        <time>2016-02-15T10:24:28.000Z</time>
      </trkpt>
      <trkpt lat="46.25064" lon="-0.8912">
        <ele>4.4000000953674</ele>
        <time>2016-02-15T10:24:37.000Z</time>
      </trkpt>
      <trkpt lat="46.25063" lon="-0.89109">
        <ele>4.8000001907349</ele>
        <time>2016-02-15T10:24:43.000Z</time>
      </trkpt>
      <trkpt lat="46.25059" lon="-0.89084">
        <ele>5.4000000953674</ele>
        <time>2016-02-15T10:24:56.000Z</time>
      </trkpt>
      <trkpt lat="46.25053" lon="-0.89058">
        <ele>6</ele>
        <time>2016-02-15T10:25:10.000Z</time>
      </trkpt>
      <trkpt lat="46.25047" lon="-0.89046">
        <ele>6</ele>
        <time>2016-02-15T10:25:17.000Z</time>
      </trkpt>
      <trkpt lat="46.25045" lon="-0.89038">
        <ele>6</ele>
        <time>2016-02-15T10:25:21.000Z</time>
      </trkpt>
      <trkpt lat="46.25035" lon="-0.89016">
        <ele>6</ele>
        <time>2016-02-15T10:25:35.000Z</time>
      </trkpt>
      <trkpt lat="46.25025" lon="-0.88993">
        <ele>5.5999999046326</ele>
        <time>2016-02-15T10:25:50.000Z</time>
      </trkpt>
      <trkpt lat="46.25017" lon="-0.88976">
        <ele>5</ele>
        <time>2016-02-15T10:26:00.000Z</time>
      </trkpt>
      <trkpt lat="46.25006" lon="-0.88953">
        <ele>4.5999999046326</ele>
        <time>2016-02-15T10:26:15.000Z</time>
      </trkpt>
      <trkpt lat="46.25006" lon="-0.88952">
        <ele>4.5999999046326</ele>
        <time>2016-02-15T10:26:16.000Z</time>
      </trkpt>
      <trkpt lat="46.25002" lon="-0.88937">
        <ele>4.5999999046326</ele>
        <time>2016-02-15T10:26:25.000Z</time>
      </trkpt>
      <trkpt lat="46.24999" lon="-0.88921">
        <ele>4.8000001907349</ele>
        <time>2016-02-15T10:26:34.000Z</time>
      </trkpt>
      <trkpt lat="46.24996" lon="-0.88904">
        <ele>5</ele>
        <time>2016-02-15T10:26:43.000Z</time>
      </trkpt>
      <trkpt lat="46.24994" lon="-0.88897">
        <ele>5</ele>
        <time>2016-02-15T10:26:47.000Z</time>
      </trkpt>
      <trkpt lat="46.24989" lon="-0.88872">
        <ele>5.1999998092651</ele>
        <time>2016-02-15T10:27:01.000Z</time>
      </trkpt>
      <trkpt lat="46.24985" lon="-0.88846">
        <ele>5.5999999046326</ele>
        <time>2016-02-15T10:27:15.000Z</time>
      </trkpt>
      <trkpt lat="46.24981" lon="-0.8882">
        <ele>5.8000001907349</ele>
        <time>2016-02-15T10:27:29.000Z</time>
      </trkpt>
      <trkpt lat="46.24982" lon="-0.88793">
        <ele>5.8000001907349</ele>
        <time>2016-02-15T10:27:44.000Z</time>
      </trkpt>
      <trkpt lat="46.24992" lon="-0.88773">
        <ele>5.8000001907349</ele>
        <time>2016-02-15T10:27:59.000Z</time>
      </trkpt>
      <trkpt lat="46.25005" lon="-0.88755">
        <ele>5.5999999046326</ele>
        <time>2016-02-15T10:28:13.000Z</time>
      </trkpt>
      <trkpt lat="46.25007" lon="-0.88752">
        <ele>5.5999999046326</ele>
        <time>2016-02-15T10:28:15.000Z</time>
      </trkpt>
      <trkpt lat="46.25023" lon="-0.88737">
        <ele>5.5999999046326</ele>
        <time>2016-02-15T10:28:29.000Z</time>
      </trkpt>
      <trkpt lat="46.25041" lon="-0.88728">
        <ele>5.8000001907349</ele>
        <time>2016-02-15T10:28:42.000Z</time>
      </trkpt>
      <trkpt lat="46.25059" lon="-0.88718">
        <ele>5.8000001907349</ele>
        <time>2016-02-15T10:28:57.000Z</time>
      </trkpt>
      <trkpt lat="46.25077" lon="-0.8871">
        <ele>6.1999998092651</ele>
        <time>2016-02-15T10:29:12.000Z</time>
      </trkpt>
      <trkpt lat="46.25094" lon="-0.88704">
        <ele>6.1999998092651</ele>
        <time>2016-02-15T10:29:26.000Z</time>
      </trkpt>
      <trkpt lat="46.25112" lon="-0.88696">
        <ele>6.4000000953674</ele>
        <time>2016-02-15T10:29:41.000Z</time>
      </trkpt>
      <trkpt lat="46.2513" lon="-0.8869">
        <ele>6.4000000953674</ele>
        <time>2016-02-15T10:29:55.000Z</time>
      </trkpt>
      <trkpt lat="46.25147" lon="-0.88683">
        <ele>6.4000000953674</ele>
        <time>2016-02-15T10:30:10.000Z</time>
      </trkpt>
      <trkpt lat="46.25164" lon="-0.88675">
        <ele>6.5999999046326</ele>
        <time>2016-02-15T10:30:25.000Z</time>
      </trkpt>
      <trkpt lat="46.25179" lon="-0.8866">
        <ele>6.8000001907349</ele>
        <time>2016-02-15T10:30:41.000Z</time>
      </trkpt>
      <trkpt lat="46.25182" lon="-0.88654">
        <ele>6.8000001907349</ele>
        <time>2016-02-15T10:30:46.000Z</time>
      </trkpt>
      <trkpt lat="46.25183" lon="-0.88648">
        <ele>6.8000001907349</ele>
        <time>2016-02-15T10:30:51.000Z</time>
      </trkpt>
      <trkpt lat="46.25186" lon="-0.88639">
        <ele>7</ele>
        <time>2016-02-15T10:31:12.000Z</time>
      </trkpt>
      <trkpt lat="46.25186" lon="-0.88638">
        <ele>7</ele>
        <time>2016-02-15T10:34:34.000Z</time>
      </trkpt>
      <trkpt lat="46.25185" lon="-0.8864">
        <ele>7</ele>
        <time>2016-02-15T10:35:42.000Z</time>
      </trkpt>
      <trkpt lat="46.25188" lon="-0.88645">
        <ele>7</ele>
        <time>2016-02-15T10:37:19.000Z</time>
      </trkpt>
      <trkpt lat="46.25193" lon="-0.88668">
        <ele>6.5999999046326</ele>
        <time>2016-02-15T10:37:59.000Z</time>
      </trkpt>
      <trkpt lat="46.25192" lon="-0.88665">
        <ele>6.5999999046326</ele>
        <time>2016-02-15T10:38:14.000Z</time>
      </trkpt>
      <trkpt lat="46.25191" lon="-0.88653">
        <ele>6.8000001907349</ele>
        <time>2016-02-15T10:38:18.000Z</time>
      </trkpt>
      <trkpt lat="46.25183" lon="-0.88629">
        <ele>7</ele>
        <time>2016-02-15T10:38:35.000Z</time>
      </trkpt>
      <trkpt lat="46.25183" lon="-0.88633">
        <ele>7</ele>
        <time>2016-02-15T10:38:58.000Z</time>
      </trkpt>
      <trkpt lat="46.25185" lon="-0.88634">
        <ele>7</ele>
        <time>2016-02-15T10:39:02.000Z</time>
      </trkpt>
      <trkpt lat="46.25183" lon="-0.88634">
        <ele>7</ele>
        <time>2016-02-15T10:39:20.000Z</time>
      </trkpt>
      <trkpt lat="46.25184" lon="-0.88636">
        <ele>7</ele>
        <time>2016-02-15T10:39:23.000Z</time>
      </trkpt>
      <trkpt lat="46.25185" lon="-0.88637">
        <ele>7</ele>
        <time>2016-02-15T10:39:30.000Z</time>
      </trkpt>
      <trkpt lat="46.25186" lon="-0.88662">
        <ele>6.8000001907349</ele>
        <time>2016-02-15T10:39:49.000Z</time>
      </trkpt>
      <trkpt lat="46.25196" lon="-0.8867">
        <ele>6.5999999046326</ele>
        <time>2016-02-15T10:40:11.000Z</time>
      </trkpt>
    </trkseg>
  </trk>
</gpx>